Observation data for Fort Lewis CO on 03/12/2018      Previous  Date  Next       Current Mesonet Observations  Soil Data  Daily Summary Page  Observations in Plain Language
KFL1 120500Z 07004KT M01/M01 A3034 RMK A01 T10061010  RH  098%=      5-min Rain = 0
KFL1 120501Z 07004KT M01/M01 A3034 RMK A01 T10061009  RH  098%=      5-min Rain = 0
KFL1 120502Z 08004KT M01/M01 A3034 RMK A01 T10081011  RH  098%=      5-min Rain = 0
KFL1 120503Z 08004KT M01/M01 A3034 RMK A01 T10061009  RH  098%=      5-min Rain = 0
KFL1 120504Z 07004KT M01/M01 A3034 RMK A01 T10071010  RH  098%=      5-min Rain = 0
KFL1 120505Z 08004KT M01/M01 A3034 RMK A01 T10081012  RH  097%=      5-min Rain = 0
KFL1 120506Z 09005KT M01/M01 A3033 RMK A01 T10091013  RH  097%=      5-min Rain = 0
KFL1 120507Z 09005KT M01/M01 A3033 RMK A01 T10101014  RH  097%=      5-min Rain = 0
KFL1 120508Z 09005KT M01/M01 A3033 RMK A01 T10101014  RH  097%=      5-min Rain = 0
KFL1 120509Z 09006KT M01/M02 A3033 RMK A01 T10111015  RH  097%=      5-min Rain = 0
KFL1 120510Z 09005KT M01/M02 A3033 RMK A01 T10111015  RH  097%=      5-min Rain = 0
KFL1 120511Z 09006KT M01/M02 A3033 RMK A01 T10111015  RH  097%=      5-min Rain = 0
KFL1 120512Z 08005KT M01/M01 A3033 RMK A01 T10111014  RH  098%=      5-min Rain = 0
KFL1 120513Z 08005KT M01/M01 A3033 RMK A01 T10101013  RH  098%=      5-min Rain = 0
KFL1 120514Z 08006KT M01/M01 A3033 RMK A01 T10101013  RH  098%=      5-min Rain = 0
KFL1 120515Z 09006KT M01/M01 A3033 RMK A01 T10111014  RH  098%=      5-min Rain = 0
KFL1 120516Z 08005KT M01/M01 A3033 RMK A01 T10111014  RH  098%=      5-min Rain = 0
KFL1 120517Z 08005KT M01/M01 A3033 RMK A01 T10101013  RH  098%=      5-min Rain = 0
KFL1 120518Z 08004KT M01/M01 A3033 RMK A01 T10101012  RH  098%=      5-min Rain = 0
KFL1 120519Z 07005KT M01/M01 A3033 RMK A01 T10081010  RH  099%=      5-min Rain = 0
KFL1 120520Z 07005KT M01/M01 A3033 RMK A01 T10091011  RH  099%=      5-min Rain = 0
KFL1 120521Z 07005KT M01/M01 A3033 RMK A01 T10061008  RH  099%=      5-min Rain = 0
KFL1 120522Z 08004KT M01/M01 A3033 RMK A01 T10071009  RH  099%=      5-min Rain = 0
KFL1 120523Z 07004KT M01/M01 A3033 RMK A01 T10061008  RH  099%=      5-min Rain = 0
KFL1 120524Z 07004KT M01/M01 A3033 RMK A01 T10051007  RH  099%=      5-min Rain = 0
KFL1 120525Z 07003KT M01/M01 A3033 RMK A01 T10051006  RH  099%=      5-min Rain = 0
KFL1 120526Z 06003KT M00/M01 A3033 RMK A01 T10041006  RH  099%=      5-min Rain = 0
KFL1 120527Z 07004KT M00/M01 A3034 RMK A01 T10041005  RH  099%=      5-min Rain = 0
KFL1 120528Z 07005KT M00/M00 A3034 RMK A01 T10021004  RH  099%=      5-min Rain = 0
KFL1 120529Z 07004KT M00/M00 A3034 RMK A01 T10021004  RH  099%=      5-min Rain = 0
KFL1 120530Z 07003KT M00/M00 A3034 RMK A01 T10021004  RH  099%=      5-min Rain = 0
KFL1 120531Z 06004KT M00/M00 A3034 RMK A01 T10021004  RH  099%=      5-min Rain = 0
KFL1 120532Z 06004KT M00/M01 A3034 RMK A01 T10031005  RH  098%=      5-min Rain = 0
KFL1 120533Z 07003KT M00/M01 A3034 RMK A01 T10031005  RH  098%=      5-min Rain = 0
KFL1 120534Z 07004KT M00/M01 A3034 RMK A01 T10031006  RH  098%=      5-min Rain = 0
KFL1 120535Z 07004KT M00/M01 A3034 RMK A01 T10031005  RH  098%=      5-min Rain = 0
KFL1 120536Z 07003KT M00/M01 A3034 RMK A01 T10021005  RH  098%=      5-min Rain = 0
KFL1 120537Z 07004KT M00/M01 A3033 RMK A01 T10021005  RH  098%=      5-min Rain = 0
KFL1 120538Z 07003KT M00/M00 A3033 RMK A01 T10011004  RH  098%=      5-min Rain = 0
KFL1 120539Z 07004KT M00/M01 A3033 RMK A01 T10021005  RH  098%=      5-min Rain = 0
KFL1 120540Z 07004KT M00/M01 A3033 RMK A01 T10021006  RH  098%=      5-min Rain = 0
KFL1 120541Z 07004KT M00/M01 A3033 RMK A01 T10021005  RH  098%=      5-min Rain = 0
KFL1 120542Z 07004KT M00/M01 A3033 RMK A01 T10021006  RH  097%=      5-min Rain = 0
KFL1 120543Z 06004KT M00/M01 A3033 RMK A01 T10021006  RH  097%=      5-min Rain = 0
KFL1 120544Z 06004KT M00/M01 A3033 RMK A01 T10021006  RH  097%=      5-min Rain = 0
KFL1 120545Z 06004KT M00/M01 A3033 RMK A01 T10021005  RH  097%=      5-min Rain = 0
KFL1 120546Z 07004KT M00/M01 A3033 RMK A01 T10021006  RH  097%=      5-min Rain = 0
KFL1 120547Z 06004KT M00/M01 A3033 RMK A01 T10021006  RH  098%=      5-min Rain = 0
KFL1 120548Z 06004KT M00/M01 A3033 RMK A01 T10011005  RH  098%=      5-min Rain = 0
KFL1 120549Z 06004KT 00/00 A3033 RMK A01 T00-000-4  RH  097%=      5-min Rain = 0
KFL1 120550Z 06004KT M00/M01 A3033 RMK A01 T10021006  RH  097%=      5-min Rain = 0
KFL1 120551Z 06003KT M00/M01 A3033 RMK A01 T10021006  RH  097%=      5-min Rain = 0
KFL1 120552Z 06004KT M00/M01 A3033 RMK A01 T10031007  RH  097%=      5-min Rain = 0
KFL1 120553Z 07004KT M00/M01 A3033 RMK A01 T10031007  RH  097%=      5-min Rain = 0
KFL1 120554Z 07004KT M00/M01 A3033 RMK A01 T10021007  RH  097%=      5-min Rain = 0
KFL1 120555Z 06003KT M00/M01 A3033 RMK A01 T10031007  RH  097%=      5-min Rain = 0
KFL1 120556Z 06003KT M00/M01 A3033 RMK A01 T10031007  RH  097%=      5-min Rain = 0
KFL1 120557Z 05003KT M00/M01 A3033 RMK A01 T10041008  RH  097%=      5-min Rain = 0
KFL1 120558Z 05003KT M00/M01 A3033 RMK A01 T10041008  RH  097%=      5-min Rain = 0
KFL1 120559Z 05004KT M00/M01 A3033 RMK A01 T10041008  RH  097%=      5-min Rain = 0
KFL1 120600Z 04004KT M00/M01 A3033 RMK A01 T10021005  RH  097%=      5-min Rain = 0
KFL1 120601Z 05005KT M00/M01 A3033 RMK A01 T10021006  RH  098%=      5-min Rain = 0
KFL1 120602Z 06005KT M00/M01 A3033 RMK A01 T10031006  RH  097%=      5-min Rain = 0
KFL1 120603Z 06005KT M00/M01 A3033 RMK A01 T10031007  RH  097%=      5-min Rain = 0
KFL1 120604Z 06005KT M00/M01 A3033 RMK A01 T10011005  RH  098%=      5-min Rain = 0
KFL1 120605Z 07006KT M00/M01 A3033 RMK A01 T10021006  RH  097%=      5-min Rain = 0
KFL1 120606Z 06005KT M00/M01 A3033 RMK A01 T10021005  RH  098%=      5-min Rain = 0
KFL1 120607Z 06005KT M00/M01 A3033 RMK A01 T10021006  RH  097%=      5-min Rain = 0
KFL1 120608Z 06005KT M00/M01 A3033 RMK A01 T10031007  RH  097%=      5-min Rain = 0
KFL1 120609Z 06005KT M00/M01 A3033 RMK A01 T10031007  RH  097%=      5-min Rain = 0
KFL1 120610Z 07005KT M00/M01 A3033 RMK A01 T10041008  RH  097%=      5-min Rain = 0
KFL1 120611Z 07005KT M00/M01 A3033 RMK A01 T10041009  RH  097%=      5-min Rain = 0
KFL1 120612Z 07004KT M01/M01 A3033 RMK A01 T10051009  RH  097%=      5-min Rain = 0
KFL1 120613Z 07004KT M01/M01 A3033 RMK A01 T10061010  RH  097%=      5-min Rain = 0
KFL1 120614Z 07004KT M01/M01 A3033 RMK A01 T10061011  RH  097%=      5-min Rain = 0
KFL1 120615Z 06005KT M01/M01 A3033 RMK A01 T10061010  RH  097%=      5-min Rain = 0
KFL1 120616Z 06005KT M01/M01 A3033 RMK A01 T10071010  RH  097%=      5-min Rain = 0
KFL1 120617Z 07005KT M00/M01 A3032 RMK A01 T10041007  RH  098%=      5-min Rain = 0
KFL1 120618Z 07005KT M00/M01 A3032 RMK A01 T10041007  RH  098%=      5-min Rain = 0
KFL1 120619Z 07006KT M00/M01 A3032 RMK A01 T10041007  RH  098%=      5-min Rain = 0
KFL1 120620Z 08007KT M00/M01 A3032 RMK A01 T10031006  RH  098%=      5-min Rain = 0
KFL1 120621Z 08007KT M00/M01 A3032 RMK A01 T10041007  RH  098%=      5-min Rain = 0
KFL1 120622Z 08009KT M00/M01 A3032 RMK A01 T10031006  RH  098%=      5-min Rain = 0
KFL1 120623Z 08008KT M00/M00 A3032 RMK A01 T10021004  RH  098%=      5-min Rain = 0
KFL1 120624Z 08007KT M00/M00 A3032 RMK A01 T10011004  RH  098%=      5-min Rain = 0
KFL1 120625Z 08007KT 00/00 A3032 RMK A01 T00-000-2  RH  099%=      5-min Rain = 0
KFL1 120626Z 08008KT 00/00 A3032 RMK A01 T00-000-2  RH  098%=      5-min Rain = 0
KFL1 120627Z 08009KT 00/M00 A3032 RMK A01 T00011002  RH  098%=      5-min Rain = 0
KFL1 120628Z 08009KT 00/00 A3032 RMK A01 T000000-2  RH  098%=      5-min Rain = 0
KFL1 120629Z 08007KT 00/00 A3032 RMK A01 T00-000-3  RH  098%=      5-min Rain = 0
KFL1 120630Z 08006KT 00/00 A3032 RMK A01 T000000-3  RH  098%=      5-min Rain = 0
KFL1 120631Z 08007KT 00/M00 A3032 RMK A01 T00021001  RH  098%=      5-min Rain = 0
KFL1 120632Z 08007KT 00/M00 A3032 RMK A01 T00011002  RH  098%=      5-min Rain = 0
KFL1 120633Z 08006KT 00/M00 A3032 RMK A01 T00011002  RH  098%=      5-min Rain = 0
KFL1 120634Z 08007KT 00/M00 A3032 RMK A01 T00021001  RH  098%=      5-min Rain = 0
KFL1 120635Z 08008KT 00/M00 A3032 RMK A01 T00021001  RH  098%=      5-min Rain = 0
KFL1 120636Z 06007KT 00/M00 A3033 RMK A01 T00011002  RH  098%=      5-min Rain = 0
KFL1 120637Z 07007KT 00/M00 A3033 RMK A01 T00011002  RH  098%=      5-min Rain = 0
KFL1 120638Z 07006KT 00/M00 A3033 RMK A01 T00011003  RH  098%=      5-min Rain = 0
KFL1 120639Z 07006KT 00/M00 A3033 RMK A01 T00011003  RH  097%=      5-min Rain = 0
KFL1 120640Z 08007KT 00/M00 A3033 RMK A01 T00021001  RH  098%=      5-min Rain = 0
KFL1 120641Z 07007KT 00/00 A3032 RMK A01 T000000-3  RH  097%=      5-min Rain = 0
KFL1 120642Z 08007KT 00/00 A3032 RMK A01 T000000-4  RH  097%=      5-min Rain = 0
KFL1 120643Z 08006KT 00/00 A3032 RMK A01 T00-000-4  RH  097%=      5-min Rain = 0
KFL1 120644Z 07007KT M00/M01 A3032 RMK A01 T10011005  RH  097%=      5-min Rain = 0
KFL1 120645Z 07008KT M00/M00 A3032 RMK A01 T10011004  RH  097%=      5-min Rain = 0
KFL1 120646Z 08008KT M00/M00 A3032 RMK A01 T10011004  RH  098%=      5-min Rain = 0
KFL1 120647Z 08007KT M00/M00 A3032 RMK A01 T10011004  RH  098%=      5-min Rain = 0
KFL1 120648Z 08009KT 00/M00 A3032 RMK A01 T00011002  RH  098%=      5-min Rain = 0
KFL1 120649Z 08007KT 00/M00 A3032 RMK A01 T00011002  RH  098%=      5-min Rain = 0
KFL1 120650Z 08010KT 00/M00 A3032 RMK A01 T00021001  RH  098%=      5-min Rain = 0
KFL1 120651Z 09007KT 00/M00 A3032 RMK A01 T00011002  RH  098%=      5-min Rain = 0
KFL1 120652Z 09009KT 00/M00 A3032 RMK A01 T00021001  RH  098%=      5-min Rain = 0
KFL1 120653Z 08009KT 00/M00 A3032 RMK A01 T00021002  RH  098%=      5-min Rain = 0
KFL1 120654Z 09009KT 00/M00 A3032 RMK A01 T00011002  RH  098%=      5-min Rain = 0
KFL1 120655Z 08010KT 00/M00 A3032 RMK A01 T00011002  RH  098%=      5-min Rain = 0
KFL1 120656Z 07009KT 00/M00 A3032 RMK A01 T00011003  RH  098%=      5-min Rain = 0
KFL1 120657Z 08009KT 00/00 A3032 RMK A01 T000000-3  RH  098%=      5-min Rain = 0
KFL1 120658Z 08007KT 00/M00 A3032 RMK A01 T00011002  RH  098%=      5-min Rain = 0
KFL1 120659Z 08008KT 00/00 A3032 RMK A01 T00-000-4  RH  097%=      5-min Rain = 0
KFL1 120700Z 08008KT 00/00 A3032 RMK A01 T00-000-4  RH  097%=      5-min Rain = 0
KFL1 120701Z 08008KT M00/M01 A3032 RMK A01 T10011005  RH  097%=      5-min Rain = 0
KFL1 120702Z 08008KT M00/M01 A3032 RMK A01 T10021006  RH  097%=      5-min Rain = 0
KFL1 120703Z 08009KT M00/M01 A3032 RMK A01 T10011005  RH  097%=      5-min Rain = 0
KFL1 120704Z 08008KT M00/M00 A3032 RMK A01 T10011004  RH  098%=      5-min Rain = 0
KFL1 120705Z 08008KT M00/M01 A3032 RMK A01 T10021006  RH  098%=      5-min Rain = 0
KFL1 120706Z 08009KT M00/M00 A3032 RMK A01 T10011004  RH  098%=      5-min Rain = 0
KFL1 120707Z 08009KT M00/M01 A3032 RMK A01 T10021005  RH  098%=      5-min Rain = 0
KFL1 120708Z 09009KT M00/M00 A3032 RMK A01 T10011004  RH  098%=      5-min Rain = 0
KFL1 120709Z 08009KT M00/M01 A3032 RMK A01 T10021005  RH  098%=      5-min Rain = 0
KFL1 120710Z 09008KT M00/M01 A3032 RMK A01 T10031006  RH  098%=      5-min Rain = 0
KFL1 120711Z 09009KT M00/M01 A3032 RMK A01 T10021005  RH  098%=      5-min Rain = 0
KFL1 120712Z 09008KT M00/M01 A3032 RMK A01 T10031006  RH  098%=      5-min Rain = 0
KFL1 120713Z 08009KT M00/M00 A3032 RMK A01 T10011004  RH  098%=      5-min Rain = 0
KFL1 120714Z 08008KT M00/M00 A3032 RMK A01 T10021004  RH  098%=      5-min Rain = 0
KFL1 120715Z 08009KT M00/M00 A3032 RMK A01 T10011003  RH  098%=      5-min Rain = 0
KFL1 120716Z 08008KT M00/M00 A3032 RMK A01 T10021004  RH  098%=      5-min Rain = 0
KFL1 120717Z 09009KT M00/M01 A3032 RMK A01 T10021005  RH  098%=      5-min Rain = 0
KFL1 120718Z 09008KT M00/M00 A3032 RMK A01 T10011004  RH  098%=      5-min Rain = 0
KFL1 120719Z 09008KT M00/M00 A3032 RMK A01 T10011003  RH  098%=      5-min Rain = 0
KFL1 120720Z 09008KT M00/M00 A3032 RMK A01 T10011003  RH  098%=      5-min Rain = 0
KFL1 120721Z 09008KT M00/M00 A3032 RMK A01 T10011003  RH  099%=      5-min Rain = 0
KFL1 120722Z 09007KT M00/M00 A3032 RMK A01 T10011003  RH  098%=      5-min Rain = 0
KFL1 120723Z 09008KT M00/M00 A3032 RMK A01 T10021004  RH  099%=      5-min Rain = 0
KFL1 120724Z 09010KT M00/M00 A3032 RMK A01 T10011004  RH  099%=      5-min Rain = 0
KFL1 120725Z 08007KT M00/M00 A3033 RMK A01 T10011003  RH  099%=      5-min Rain = 0
KFL1 120726Z 08008KT M00/M00 A3033 RMK A01 T10021004  RH  099%=      5-min Rain = 0
KFL1 120727Z 08008KT M00/M00 A3033 RMK A01 T10011003  RH  099%=      5-min Rain = 0
KFL1 120728Z 08009KT M00/M00 A3033 RMK A01 T10011003  RH  099%=      5-min Rain = 0
KFL1 120729Z 08009KT M00/M01 A3033 RMK A01 T10021005  RH  098%=      5-min Rain = 0
KFL1 120730Z 08009KT M00/M01 A3032 RMK A01 T10021005  RH  098%=      5-min Rain = 0
KFL1 120731Z 08008KT M00/M01 A3032 RMK A01 T10031005  RH  098%=      5-min Rain = 0
KFL1 120732Z 07008KT M00/M01 A3032 RMK A01 T10031005  RH  099%=      5-min Rain = 0
KFL1 120733Z 07007KT M00/M00 A3032 RMK A01 T10011003  RH  099%=      5-min Rain = 0
KFL1 120734Z 07009KT M00/M00 A3032 RMK A01 T10021004  RH  099%=      5-min Rain = 0
KFL1 120735Z 07007KT M00/M00 A3032 RMK A01 T10021003  RH  099%=      5-min Rain = 0
KFL1 120736Z 07007KT M00/M00 A3032 RMK A01 T10011002  RH  099%=      5-min Rain = 0
KFL1 120737Z 07007KT M00/M00 A3032 RMK A01 T10021004  RH  099%=      5-min Rain = 0
KFL1 120738Z 07007KT 00/00 A3032 RMK A01 T00-000-2  RH  099%=      5-min Rain = 0
KFL1 120739Z 07007KT M00/M00 A3033 RMK A01 T10011003  RH  099%=      5-min Rain = 0
KFL1 120740Z 06007KT M00/M01 A3033 RMK A01 T10031005  RH  099%=      5-min Rain = 0
KFL1 120741Z 07007KT M00/M01 A3033 RMK A01 T10031005  RH  099%=      5-min Rain = 0
KFL1 120742Z 06007KT M00/M00 A3033 RMK A01 T10021004  RH  099%=      5-min Rain = 0
KFL1 120743Z 07006KT M00/M00 A3033 RMK A01 T10031004  RH  099%=      5-min Rain = 0
KFL1 120744Z 07006KT M00/M01 A3033 RMK A01 T10041006  RH  099%=      5-min Rain = 0
KFL1 120745Z 07006KT M00/M01 A3033 RMK A01 T10041006  RH  099%=      5-min Rain = 0
KFL1 120746Z 07006KT M00/M01 A3033 RMK A01 T10041006  RH  099%=      5-min Rain = 0
KFL1 120747Z 07006KT M00/M01 A3033 RMK A01 T10041006  RH  099%=      5-min Rain = 0
KFL1 120748Z 07006KT M01/M01 A3033 RMK A01 T10061007  RH  099%=      5-min Rain = 0
KFL1 120749Z 07006KT M01/M01 A3033 RMK A01 T10051007  RH  099%=      5-min Rain = 0
KFL1 120750Z 07006KT M01/M01 A3033 RMK A01 T10061008  RH  099%=      5-min Rain = 0
KFL1 120751Z 07006KT M01/M01 A3033 RMK A01 T10051007  RH  099%=      5-min Rain = 0
KFL1 120752Z 07006KT M01/M01 A3033 RMK A01 T10051007  RH  099%=      5-min Rain = 0
KFL1 120753Z 07006KT M01/M01 A3033 RMK A01 T10051006  RH  099%=      5-min Rain = 0
KFL1 120754Z 07006KT M01/M01 A3033 RMK A01 T10051007  RH  099%=      5-min Rain = 0
KFL1 120755Z 06006KT M01/M01 A3033 RMK A01 T10051006  RH  099%=      5-min Rain = 0
KFL1 120756Z 07006KT M01/M01 A3033 RMK A01 T10061008  RH  099%=      5-min Rain = 0
KFL1 120757Z 07006KT M01/M01 A3033 RMK A01 T10071009  RH  099%=      5-min Rain = 0
KFL1 120758Z 07007KT M01/M01 A3033 RMK A01 T10071009  RH  099%=      5-min Rain = 0
KFL1 120759Z 07006KT M01/M01 A3033 RMK A01 T10061008  RH  099%=      5-min Rain = 0
KFL1 120800Z 07007KT M01/M01 A3033 RMK A01 T10051007  RH  099%=      5-min Rain = 0
KFL1 120801Z 07006KT M01/M01 A3033 RMK A01 T10051007  RH  099%=      5-min Rain = 0
KFL1 120802Z 07007KT M01/M01 A3033 RMK A01 T10061008  RH  099%=      5-min Rain = 0
KFL1 120803Z 07007KT M01/M01 A3033 RMK A01 T10051006  RH  099%=      5-min Rain = 0
KFL1 120804Z 07007KT M01/M01 A3033 RMK A01 T10051006  RH  099%=      5-min Rain = 0
KFL1 120805Z 07006KT M00/M01 A3033 RMK A01 T10041006  RH  099%=      5-min Rain = 0
KFL1 120806Z 07006KT M01/M01 A3033 RMK A01 T10051007  RH  099%=      5-min Rain = 0
KFL1 120807Z 07006KT M00/M01 A3033 RMK A01 T10031005  RH  099%=      5-min Rain = 0
KFL1 120808Z 07006KT M01/M01 A3033 RMK A01 T10051008  RH  098%=      5-min Rain = 0
KFL1 120809Z 07006KT M01/M01 A3033 RMK A01 T10061008  RH  098%=      5-min Rain = 0
KFL1 120810Z 07006KT M01/M01 A3033 RMK A01 T10071009  RH  098%=      5-min Rain = 0
KFL1 120811Z 07006KT M01/M01 A3033 RMK A01 T10051007  RH  098%=      5-min Rain = 0
KFL1 120812Z 07006KT M01/M01 A3033 RMK A01 T10061008  RH  098%=      5-min Rain = 0
KFL1 120813Z 07006KT M01/M01 A3033 RMK A01 T10051007  RH  098%=      5-min Rain = 0
KFL1 120814Z 07005KT M01/M01 A3033 RMK A01 T10051008  RH  098%=      5-min Rain = 0
KFL1 120815Z 07006KT M01/M01 A3033 RMK A01 T10061009  RH  098%=      5-min Rain = 0
KFL1 120816Z 07006KT M00/M01 A3033 RMK A01 T10041007  RH  098%=      5-min Rain = 0
KFL1 120817Z 07005KT M01/M01 A3033 RMK A01 T10051007  RH  098%=      5-min Rain = 0
KFL1 120818Z 07006KT M00/M01 A3033 RMK A01 T10041006  RH  098%=      5-min Rain = 0
KFL1 120819Z 07006KT M00/M01 A3033 RMK A01 T10041006  RH  098%=      5-min Rain = 0
KFL1 120820Z 07005KT M00/M01 A3033 RMK A01 T10041007  RH  098%=      5-min Rain = 0
KFL1 120821Z 07006KT M01/M01 A3033 RMK A01 T10051008  RH  098%=      5-min Rain = 0
KFL1 120822Z 07006KT M00/M01 A3033 RMK A01 T10041007  RH  098%=      5-min Rain = 0
KFL1 120823Z 07006KT M00/M01 A3033 RMK A01 T10031006  RH  098%=      5-min Rain = 0
KFL1 120824Z 07006KT M00/M01 A3033 RMK A01 T10021005  RH  098%=      5-min Rain = 0
KFL1 120825Z 06005KT M00/M01 A3033 RMK A01 T10021005  RH  098%=      5-min Rain = 0
KFL1 120826Z 07005KT M00/M00 A3033 RMK A01 T10011004  RH  098%=      5-min Rain = 0
KFL1 120827Z 07005KT M00/M00 A3033 RMK A01 T10011004  RH  098%=      5-min Rain = 0
KFL1 120828Z 07006KT M00/M00 A3033 RMK A01 T10011004  RH  098%=      5-min Rain = 0
KFL1 120829Z 07005KT M00/M00 A3033 RMK A01 T10011004  RH  098%=      5-min Rain = 0
KFL1 120830Z 07005KT 00/M00 A3033 RMK A01 T00011003  RH  097%=      5-min Rain = 0
KFL1 120831Z 07005KT 00/M00 A3033 RMK A01 T00011003  RH  097%=      5-min Rain = 0
KFL1 120832Z 07005KT 00/M00 A3033 RMK A01 T00021002  RH  097%=      5-min Rain = 0
KFL1 120833Z 08005KT 00/M00 A3033 RMK A01 T00011002  RH  097%=      5-min Rain = 0
KFL1 120834Z 08005KT 00/M00 A3033 RMK A01 T00021002  RH  097%=      5-min Rain = 0
KFL1 120835Z 08005KT 00/M00 A3033 RMK A01 T00031001  RH  097%=      5-min Rain = 0
KFL1 120836Z 08005KT 00/M00 A3033 RMK A01 T00021001  RH  097%=      5-min Rain = 0
KFL1 120837Z 08005KT 00/M00 A3033 RMK A01 T00021001  RH  097%=      5-min Rain = 0
KFL1 120838Z 08005KT 00/M00 A3033 RMK A01 T00031001  RH  097%=      5-min Rain = 0
KFL1 120839Z 08005KT 00/M00 A3033 RMK A01 T00031001  RH  097%=      5-min Rain = 0
KFL1 120840Z 09004KT 00/00 A3033 RMK A01 T000400-0  RH  097%=      5-min Rain = 0
KFL1 120841Z 09004KT 00/M00 A3033 RMK A01 T00041001  RH  097%=      5-min Rain = 0
KFL1 120842Z 10004KT 00/M00 A3033 RMK A01 T00041001  RH  097%=      5-min Rain = 0
KFL1 120843Z 10004KT 00/00 A3033 RMK A01 T000400-0  RH  097%=      5-min Rain = 0
KFL1 120844Z 10004KT 00/M00 A3033 RMK A01 T00031001  RH  097%=      5-min Rain = 0
KFL1 120845Z 11004KT 00/M00 A3033 RMK A01 T00041001  RH  097%=      5-min Rain = 0
KFL1 120846Z 10004KT 00/M00 A3033 RMK A01 T00031001  RH  097%=      5-min Rain = 0
KFL1 120847Z 10004KT 01/00 A3033 RMK A01 T000500-0  RH  097%=      5-min Rain = 0
KFL1 120848Z 09004KT 00/M00 A3033 RMK A01 T00031002  RH  097%=      5-min Rain = 0
KFL1 120849Z 09005KT 00/M00 A3033 RMK A01 T00041001  RH  097%=      5-min Rain = 0
KFL1 120850Z 09005KT 00/M00 A3033 RMK A01 T00041001  RH  097%=      5-min Rain = 0
KFL1 120851Z 09005KT 00/M00 A3033 RMK A01 T00041001  RH  097%=      5-min Rain = 0
KFL1 120852Z 09005KT 00/00 A3033 RMK A01 T000400-0  RH  097%=      5-min Rain = 0
KFL1 120853Z 08005KT 00/00 A3033 RMK A01 T000400-0  RH  097%=      5-min Rain = 0
KFL1 120854Z 08006KT 00/M00 A3033 RMK A01 T00041002  RH  096%=      5-min Rain = 0
KFL1 120855Z 08006KT 01/00 A3033 RMK A01 T00050000  RH  096%=      5-min Rain = 0
KFL1 120856Z 08006KT 00/M00 A3033 RMK A01 T00041002  RH  096%=      5-min Rain = 0
KFL1 120857Z 08005KT 01/M00 A3033 RMK A01 T00051001  RH  096%=      5-min Rain = 0
KFL1 120858Z 08006KT 00/M00 A3033 RMK A01 T00041001  RH  096%=      5-min Rain = 0
KFL1 120859Z 08006KT 01/M00 A3033 RMK A01 T00051001  RH  096%=      5-min Rain = 0
KFL1 120900Z 08006KT 01/00 A3033 RMK A01 T00060001  RH  096%=      5-min Rain = 0
KFL1 120901Z 08006KT 01/00 A3033 RMK A01 T000500-0  RH  096%=      5-min Rain = 0
KFL1 120902Z 08006KT 01/00 A3033 RMK A01 T00060001  RH  096%=      5-min Rain = 0
KFL1 120903Z 08006KT 01/00 A3033 RMK A01 T00060000  RH  096%=      5-min Rain = 0
KFL1 120904Z 08005KT 01/00 A3033 RMK A01 T00060001  RH  096%=      5-min Rain = 0
KFL1 120905Z 08005KT 01/00 A3033 RMK A01 T00070001  RH  096%=      5-min Rain = 0
KFL1 120906Z 08005KT 01/00 A3033 RMK A01 T00060000  RH  096%=      5-min Rain = 0
KFL1 120907Z 08005KT 01/00 A3033 RMK A01 T00060000  RH  096%=      5-min Rain = 0
KFL1 120908Z 08005KT 01/M00 A3033 RMK A01 T00051001  RH  096%=      5-min Rain = 0
KFL1 120909Z 08005KT 01/00 A3033 RMK A01 T000600-0  RH  096%=      5-min Rain = 0
KFL1 120910Z 08006KT 01/00 A3033 RMK A01 T00060001  RH  096%=      5-min Rain = 0
KFL1 120911Z 08006KT 01/00 A3033 RMK A01 T00070001  RH  096%=      5-min Rain = 0
KFL1 120912Z 08006KT 01/00 A3033 RMK A01 T00060000  RH  096%=      5-min Rain = 0
KFL1 120913Z 08006KT 01/00 A3033 RMK A01 T00060000  RH  096%=      5-min Rain = 0
KFL1 120914Z 08006KT 01/00 A3033 RMK A01 T00080001  RH  096%=      5-min Rain = 0
KFL1 120915Z 08006KT 01/00 A3033 RMK A01 T00080001  RH  096%=      5-min Rain = 0
KFL1 120916Z 08006KT 01/00 A3032 RMK A01 T00070000  RH  095%=      5-min Rain = 0
KFL1 120917Z 08006KT 01/00 A3032 RMK A01 T00080002  RH  095%=      5-min Rain = 0
KFL1 120918Z 08005KT 01/00 A3032 RMK A01 T00080001  RH  095%=      5-min Rain = 0
KFL1 120919Z 08006KT 01/00 A3032 RMK A01 T00080001  RH  095%=      5-min Rain = 0
KFL1 120920Z 08006KT 01/00 A3032 RMK A01 T00080001  RH  095%=      5-min Rain = 0
KFL1 120921Z 08006KT 01/00 A3032 RMK A01 T00070000  RH  095%=      5-min Rain = 0
KFL1 120922Z 08006KT 01/00 A3032 RMK A01 T00090002  RH  095%=      5-min Rain = 0
KFL1 120923Z 08006KT 01/00 A3032 RMK A01 T00080001  RH  095%=      5-min Rain = 0
KFL1 120924Z 08006KT 01/00 A3032 RMK A01 T000700-0  RH  095%=      5-min Rain = 0
KFL1 120925Z 08006KT 01/00 A3032 RMK A01 T00110003  RH  095%=      5-min Rain = 0
KFL1 120926Z 08006KT 01/00 A3032 RMK A01 T00080001  RH  095%=      5-min Rain = 0
KFL1 120927Z 08006KT 01/00 A3032 RMK A01 T00090001  RH  094%=      5-min Rain = 0
KFL1 120928Z 08006KT 01/00 A3032 RMK A01 T00090001  RH  094%=      5-min Rain = 0
KFL1 120929Z 08006KT 01/00 A3032 RMK A01 T00090001  RH  094%=      5-min Rain = 0
KFL1 120930Z 08005KT 01/00 A3032 RMK A01 T00090001  RH  094%=      5-min Rain = 0
KFL1 120931Z 08006KT 01/00 A3032 RMK A01 T00090001  RH  094%=      5-min Rain = 0
KFL1 120932Z 08005KT 01/00 A3032 RMK A01 T00090001  RH  094%=      5-min Rain = 0
KFL1 120933Z 08005KT 01/00 A3032 RMK A01 T00090001  RH  094%=      5-min Rain = 0
KFL1 120934Z 08006KT 01/00 A3032 RMK A01 T00090001  RH  094%=      5-min Rain = 0
KFL1 120935Z 08006KT 01/00 A3032 RMK A01 T00090001  RH  094%=      5-min Rain = 0
KFL1 120936Z 08006KT 01/00 A3032 RMK A01 T00090000  RH  094%=      5-min Rain = 0
KFL1 120937Z 08006KT 01/00 A3032 RMK A01 T00090000  RH  094%=      5-min Rain = 0
KFL1 120938Z 08006KT 01/00 A3032 RMK A01 T00100001  RH  094%=      5-min Rain = 0
KFL1 120939Z 08005KT 01/00 A3032 RMK A01 T00100001  RH  094%=      5-min Rain = 0
KFL1 120940Z 08006KT 01/00 A3032 RMK A01 T00090000  RH  094%=      5-min Rain = 0
KFL1 120941Z 08006KT 01/00 A3032 RMK A01 T00090000  RH  094%=      5-min Rain = 0
KFL1 120942Z 07006KT 01/00 A3032 RMK A01 T000900-0  RH  094%=      5-min Rain = 0
KFL1 120943Z 08006KT 01/00 A3032 RMK A01 T00100000  RH  094%=      5-min Rain = 0
KFL1 120944Z 08006KT 01/00 A3032 RMK A01 T000900-0  RH  093%=      5-min Rain = 0
KFL1 120945Z 08006KT 01/00 A3032 RMK A01 T00100001  RH  093%=      5-min Rain = 0
KFL1 120946Z 07006KT 01/00 A3032 RMK A01 T00100000  RH  093%=      5-min Rain = 0
KFL1 120947Z 08006KT 01/00 A3032 RMK A01 T00110001  RH  093%=      5-min Rain = 0
KFL1 120948Z 08006KT 01/00 A3032 RMK A01 T001000-0  RH  093%=      5-min Rain = 0
KFL1 120949Z 08007KT 01/00 A3032 RMK A01 T00100000  RH  093%=      5-min Rain = 0
KFL1 120950Z 07006KT 01/00 A3032 RMK A01 T00100000  RH  093%=      5-min Rain = 0
KFL1 120951Z 07005KT 01/00 A3032 RMK A01 T00100000  RH  093%=      5-min Rain = 0
KFL1 120952Z 07006KT 01/00 A3032 RMK A01 T001000-0  RH  093%=      5-min Rain = 0
KFL1 120953Z 07006KT 01/M00 A3032 RMK A01 T00101001  RH  093%=      5-min Rain = 0
KFL1 120954Z 08006KT 01/M00 A3032 RMK A01 T00101001  RH  093%=      5-min Rain = 0
KFL1 120955Z 08006KT 01/00 A3032 RMK A01 T00110001  RH  093%=      5-min Rain = 0
KFL1 120956Z 07006KT 01/M00 A3032 RMK A01 T00101001  RH  093%=      5-min Rain = 0
KFL1 120957Z 08006KT 01/00 A3032 RMK A01 T00120001  RH  092%=      5-min Rain = 0
KFL1 120958Z 07006KT 01/00 A3032 RMK A01 T00110000  RH  092%=      5-min Rain = 0
KFL1 120959Z 07006KT 01/00 A3032 RMK A01 T00110000  RH  093%=      5-min Rain = 0
KFL1 121000Z 07006KT 01/00 A3032 RMK A01 T00110000  RH  093%=      5-min Rain = 0
KFL1 121001Z 08007KT 01/00 A3032 RMK A01 T001100-0  RH  093%=      5-min Rain = 0
KFL1 121002Z 07006KT 01/00 A3032 RMK A01 T00120001  RH  093%=      5-min Rain = 0
KFL1 121003Z 07007KT 01/00 A3032 RMK A01 T00110000  RH  093%=      5-min Rain = 0
KFL1 121004Z 07005KT 01/00 A3032 RMK A01 T001100-0  RH  093%=      5-min Rain = 0
KFL1 121005Z 07005KT 01/00 A3032 RMK A01 T001100-0  RH  092%=      5-min Rain = 0
KFL1 121006Z 07006KT 01/00 A3032 RMK A01 T00110000  RH  092%=      5-min Rain = 0
KFL1 121007Z 07005KT 01/M00 A3032 RMK A01 T00101001  RH  092%=      5-min Rain = 0
KFL1 121008Z 07005KT 01/M00 A3032 RMK A01 T00101001  RH  092%=      5-min Rain = 0
KFL1 121009Z 08006KT 01/00 A3032 RMK A01 T00110001  RH  093%=      5-min Rain = 0
KFL1 121010Z 09006KT 01/00 A3032 RMK A01 T00120001  RH  093%=      5-min Rain = 0
KFL1 121011Z 08006KT 01/00 A3032 RMK A01 T001100-0  RH  093%=      5-min Rain = 0
KFL1 121012Z 08007KT 01/00 A3032 RMK A01 T00110000  RH  093%=      5-min Rain = 0
KFL1 121013Z 08007KT 01/00 A3032 RMK A01 T001100-0  RH  093%=      5-min Rain = 0
KFL1 121014Z 08007KT 01/00 A3032 RMK A01 T00110000  RH  093%=      5-min Rain = 0
KFL1 121015Z 08006KT 01/00 A3032 RMK A01 T00110001  RH  093%=      5-min Rain = 0
KFL1 121016Z 07006KT 01/00 A3032 RMK A01 T00110001  RH  093%=      5-min Rain = 0
KFL1 121017Z 08006KT 01/00 A3032 RMK A01 T001100-0  RH  093%=      5-min Rain = 0
KFL1 121018Z 07006KT 01/M00 A3032 RMK A01 T00111001  RH  092%=      5-min Rain = 0
KFL1 121019Z 07006KT 01/00 A3032 RMK A01 T00120000  RH  092%=      5-min Rain = 0
KFL1 121020Z 08006KT 01/00 A3032 RMK A01 T00120000  RH  092%=      5-min Rain = 0
KFL1 121021Z 07006KT 01/00 A3032 RMK A01 T001100-0  RH  092%=      5-min Rain = 0
KFL1 121022Z 07006KT 01/00 A3032 RMK A01 T001000-0  RH  092%=      5-min Rain = 0
KFL1 121023Z 07006KT 01/00 A3032 RMK A01 T001000-0  RH  093%=      5-min Rain = 0
KFL1 121024Z 08005KT 01/00 A3032 RMK A01 T001000-0  RH  093%=      5-min Rain = 0
KFL1 121025Z 07005KT 01/00 A3032 RMK A01 T00120001  RH  093%=      5-min Rain = 0
KFL1 121026Z 07005KT 01/00 A3032 RMK A01 T00110000  RH  092%=      5-min Rain = 0
KFL1 121027Z 07005KT 01/M00 A3032 RMK A01 T00111001  RH  092%=      5-min Rain = 0
KFL1 121028Z 07005KT 01/00 A3032 RMK A01 T00120001  RH  092%=      5-min Rain = 0
KFL1 121029Z 08005KT 01/00 A3032 RMK A01 T00120001  RH  092%=      5-min Rain = 0
KFL1 121030Z 07005KT 01/00 A3032 RMK A01 T001100-0  RH  092%=      5-min Rain = 0
KFL1 121031Z 08005KT 01/00 A3032 RMK A01 T00120001  RH  092%=      5-min Rain = 0
KFL1 121032Z 08006KT 01/00 A3032 RMK A01 T00120001  RH  092%=      5-min Rain = 0
KFL1 121033Z 08006KT 01/M00 A3032 RMK A01 T00101001  RH  092%=      5-min Rain = 0
KFL1 121034Z 07006KT 01/00 A3032 RMK A01 T001100-0  RH  092%=      5-min Rain = 0
KFL1 121035Z 08006KT 01/00 A3032 RMK A01 T00120000  RH  092%=      5-min Rain = 0
KFL1 121036Z 08006KT 01/00 A3032 RMK A01 T00120000  RH  092%=      5-min Rain = 0
KFL1 121037Z 07005KT 01/00 A3032 RMK A01 T001100-0  RH  092%=      5-min Rain = 0
KFL1 121038Z 08006KT 01/M00 A3032 RMK A01 T00111001  RH  092%=      5-min Rain = 0
KFL1 121039Z 07006KT 01/00 A3032 RMK A01 T00120001  RH  092%=      5-min Rain = 0
KFL1 121040Z 08007KT 01/00 A3032 RMK A01 T001100-0  RH  092%=      5-min Rain = 0
KFL1 121041Z 08007KT 01/00 A3032 RMK A01 T00110000  RH  092%=      5-min Rain = 0
KFL1 121042Z 08006KT 01/00 A3032 RMK A01 T001100-0  RH  092%=      5-min Rain = 0
KFL1 121043Z 08007KT 01/M00 A3032 RMK A01 T00101001  RH  092%=      5-min Rain = 0
KFL1 121044Z 08006KT 01/00 A3032 RMK A01 T001000-0  RH  092%=      5-min Rain = 0
KFL1 121045Z 08006KT 01/M00 A3031 RMK A01 T00101001  RH  092%=      5-min Rain = 0
KFL1 121046Z 08007KT 01/M00 A3031 RMK A01 T00101001  RH  092%=      5-min Rain = 0
KFL1 121047Z 08006KT 01/M00 A3031 RMK A01 T00111001  RH  092%=      5-min Rain = 0
KFL1 121048Z 08006KT 01/M00 A3031 RMK A01 T00111001  RH  092%=      5-min Rain = 0
KFL1 121049Z 09006KT 01/M00 A3031 RMK A01 T00111001  RH  092%=      5-min Rain = 0
KFL1 121050Z 08006KT 01/M00 A3031 RMK A01 T00091002  RH  092%=      5-min Rain = 0
KFL1 121051Z 08007KT 01/M00 A3031 RMK A01 T00081003  RH  092%=      5-min Rain = 0
KFL1 121052Z 08006KT 01/M00 A3031 RMK A01 T00081003  RH  092%=      5-min Rain = 0
KFL1 121053Z 08006KT 01/M00 A3031 RMK A01 T00091002  RH  093%=      5-min Rain = 0
KFL1 121054Z 08006KT 01/M00 A3031 RMK A01 T00071003  RH  093%=      5-min Rain = 0
KFL1 121055Z 08007KT 01/M00 A3031 RMK A01 T00081002  RH  093%=      5-min Rain = 0
KFL1 121056Z 08006KT 01/M00 A3031 RMK A01 T00061004  RH  093%=      5-min Rain = 0
KFL1 121057Z 08007KT 01/M00 A3031 RMK A01 T00071004  RH  093%=      5-min Rain = 0
KFL1 121058Z 08007KT 01/M00 A3031 RMK A01 T00071004  RH  093%=      5-min Rain = 0
KFL1 121059Z 08007KT 01/M00 A3031 RMK A01 T00061004  RH  093%=      5-min Rain = 0
KFL1 121100Z 08007KT 01/M01 A3031 RMK A01 T00061005  RH  093%=      5-min Rain = 0
KFL1 121101Z 08006KT 01/M00 A3031 RMK A01 T00061004  RH  093%=      5-min Rain = 0
KFL1 121102Z 08006KT 01/M00 A3031 RMK A01 T00071004  RH  092%=      5-min Rain = 0
KFL1 121103Z 08006KT 01/M01 A3031 RMK A01 T00051006  RH  092%=      5-min Rain = 0
KFL1 121104Z 08007KT 00/M01 A3031 RMK A01 T00041007  RH  092%=      5-min Rain = 0
KFL1 121105Z 08007KT 00/M01 A3031 RMK A01 T00041008  RH  092%=      5-min Rain = 0
KFL1 121106Z 08007KT 00/M01 A3031 RMK A01 T00031008  RH  092%=      5-min Rain = 0
KFL1 121107Z 08006KT 00/M01 A3031 RMK A01 T00031008  RH  093%=      5-min Rain = 0
KFL1 121108Z 08006KT 00/M01 A3031 RMK A01 T00031007  RH  093%=      5-min Rain = 0
KFL1 121109Z 09006KT 00/M01 A3031 RMK A01 T00011009  RH  093%=      5-min Rain = 0
KFL1 121110Z 09006KT 00/01 A3031 RMK A01 T00000-10  RH  093%=      5-min Rain = 0
KFL1 121111Z 09006KT 00/01 A3031 RMK A01 T00-00-10  RH  093%=      5-min Rain = 0
KFL1 121112Z 08006KT 00/01 A3031 RMK A01 T000000-9  RH  094%=      5-min Rain = 0
KFL1 121113Z 08007KT 00/M01 A3031 RMK A01 T00011008  RH  094%=      5-min Rain = 0
KFL1 121114Z 08007KT M00/M01 A3031 RMK A01 T10021011  RH  094%=      5-min Rain = 0
KFL1 121115Z 08007KT M00/M01 A3031 RMK A01 T10021010  RH  094%=      5-min Rain = 0
KFL1 121116Z 08006KT M00/M01 A3031 RMK A01 T10031010  RH  095%=      5-min Rain = 0
KFL1 121117Z 09006KT M00/M01 A3031 RMK A01 T10021010  RH  095%=      5-min Rain = 0
KFL1 121118Z 09005KT M00/M01 A3031 RMK A01 T10031011  RH  095%=      5-min Rain = 0
KFL1 121119Z 08006KT M01/M01 A3031 RMK A01 T10051013  RH  094%=      5-min Rain = 0
KFL1 121120Z 08006KT M01/M01 A3031 RMK A01 T10061014  RH  094%=      5-min Rain = 0
KFL1 121121Z 08006KT M01/M01 A3031 RMK A01 T10061014  RH  094%=      5-min Rain = 0
KFL1 121122Z 08006KT M01/M01 A3031 RMK A01 T10051013  RH  095%=      5-min Rain = 0
KFL1 121123Z 08006KT M01/M01 A3031 RMK A01 T10061013  RH  095%=      5-min Rain = 0
KFL1 121124Z 08006KT M01/M01 A3031 RMK A01 T10081014  RH  096%=      5-min Rain = 0
KFL1 121125Z 08006KT M01/M01 A3031 RMK A01 T10071013  RH  096%=      5-min Rain = 0
KFL1 121126Z 09006KT M01/M01 A3031 RMK A01 T10071013  RH  096%=      5-min Rain = 0
KFL1 121127Z 09005KT M01/M01 A3031 RMK A01 T10081013  RH  096%=      5-min Rain = 0
KFL1 121128Z 09005KT M01/M01 A3031 RMK A01 T10081014  RH  096%=      5-min Rain = 0
KFL1 121129Z 09005KT M01/M01 A3031 RMK A01 T10081013  RH  096%=      5-min Rain = 0
KFL1 121130Z 09006KT M01/M01 A3032 RMK A01 T10071012  RH  096%=      5-min Rain = 0
KFL1 121131Z 09006KT M01/M01 A3032 RMK A01 T10091014  RH  096%=      5-min Rain = 0
KFL1 121132Z 09006KT M01/M01 A3032 RMK A01 T10081013  RH  096%=      5-min Rain = 0
KFL1 121133Z 09006KT M01/M01 A3032 RMK A01 T10081013  RH  097%=      5-min Rain = 0
KFL1 121134Z 09006KT M01/M01 A3032 RMK A01 T10081012  RH  097%=      5-min Rain = 0
KFL1 121135Z 09006KT M01/M01 A3032 RMK A01 T10091013  RH  097%=      5-min Rain = 0
KFL1 121136Z 09006KT M01/M01 A3032 RMK A01 T10071011  RH  097%=      5-min Rain = 0
KFL1 121137Z 09006KT M01/M01 A3032 RMK A01 T10091013  RH  097%=      5-min Rain = 0
KFL1 121138Z 09006KT M01/M01 A3032 RMK A01 T10091014  RH  097%=      5-min Rain = 0
KFL1 121139Z 08006KT M01/M01 A3032 RMK A01 T10081012  RH  097%=      5-min Rain = 0
KFL1 121140Z 08006KT M01/M01 A3031 RMK A01 T10081013  RH  097%=      5-min Rain = 0
KFL1 121141Z 08006KT M01/M01 A3031 RMK A01 T10081012  RH  097%=      5-min Rain = 0
KFL1 121142Z 08006KT M01/M01 A3031 RMK A01 T10081012  RH  097%=      5-min Rain = 0
KFL1 121143Z 07006KT M01/M01 A3031 RMK A01 T10081012  RH  097%=      5-min Rain = 0
KFL1 121144Z 07007KT M01/M01 A3031 RMK A01 T10071012  RH  097%=      5-min Rain = 0
KFL1 121145Z 07007KT M01/M01 A3031 RMK A01 T10071011  RH  097%=      5-min Rain = 0
KFL1 121146Z 07007KT M01/M01 A3031 RMK A01 T10071011  RH  097%=      5-min Rain = 0
KFL1 121147Z 07007KT M01/M01 A3031 RMK A01 T10061011  RH  097%=      5-min Rain = 0
KFL1 121148Z 07007KT M01/M01 A3031 RMK A01 T10061011  RH  096%=      5-min Rain = 0
KFL1 121149Z 07007KT M01/M01 A3031 RMK A01 T10061012  RH  096%=      5-min Rain = 0
KFL1 121150Z 07007KT M01/M01 A3031 RMK A01 T10051011  RH  096%=      5-min Rain = 0
KFL1 121151Z 07007KT M01/M01 A3031 RMK A01 T10051011  RH  095%=      5-min Rain = 0
KFL1 121152Z 07007KT M01/M01 A3031 RMK A01 T10071014  RH  095%=      5-min Rain = 0
KFL1 121153Z 07007KT M01/M02 A303 RMK A01 T10081015  RH  095%=      5-min Rain = 0
KFL1 121154Z 07007KT M01/M02 A303 RMK A01 T10091016  RH  095%=      5-min Rain = 0
KFL1 121155Z 07007KT M01/M02 A303 RMK A01 T10101018  RH  095%=      5-min Rain = 0
KFL1 121156Z 08007KT M01/M02 A303 RMK A01 T10111019  RH  095%=      5-min Rain = 0
KFL1 121157Z 07007KT M01/M02 A303 RMK A01 T10111018  RH  095%=      5-min Rain = 0
KFL1 121158Z 07007KT M01/M02 A303 RMK A01 T10121018  RH  095%=      5-min Rain = 0
KFL1 121159Z 07007KT M01/M02 A303 RMK A01 T10131019  RH  095%=      5-min Rain = 0
KFL1 121200Z 07007KT M01/M02 A303 RMK A01 T10131019  RH  096%=      5-min Rain = 0
KFL1 121201Z 08008KT M01/M02 A303 RMK A01 T10121018  RH  096%=      5-min Rain = 0
KFL1 121202Z 07007KT M01/M02 A303 RMK A01 T10121018  RH  096%=      5-min Rain = 0
KFL1 121203Z 07006KT M01/M02 A303 RMK A01 T10131018  RH  096%=      5-min Rain = 0
KFL1 121204Z 07006KT M01/M02 A303 RMK A01 T10121017  RH  096%=      5-min Rain = 0
KFL1 121205Z 07006KT M01/M02 A303 RMK A01 T10121017  RH  097%=      5-min Rain = 0
KFL1 121206Z 07007KT M01/M02 A303 RMK A01 T10111016  RH  096%=      5-min Rain = 0
KFL1 121207Z 08007KT M01/M02 A303 RMK A01 T10121017  RH  097%=      5-min Rain = 0
KFL1 121208Z 08007KT M01/M02 A303 RMK A01 T10131018  RH  097%=      5-min Rain = 0
KFL1 121209Z 08007KT M01/M02 A303 RMK A01 T10131017  RH  097%=      5-min Rain = 0
KFL1 121210Z 08006KT M01/M02 A303 RMK A01 T10121017  RH  097%=      5-min Rain = 0
KFL1 121211Z 08007KT M01/M02 A303 RMK A01 T10121017  RH  097%=      5-min Rain = 0
KFL1 121212Z 08007KT M01/M02 A303 RMK A01 T10131018  RH  097%=      5-min Rain = 0
KFL1 121213Z 08006KT M01/M02 A303 RMK A01 T10121017  RH  097%=      5-min Rain = 0
KFL1 121214Z 08006KT M01/M02 A303 RMK A01 T10121017  RH  097%=      5-min Rain = 0
KFL1 121215Z 08006KT M01/M02 A303 RMK A01 T10131018  RH  097%=      5-min Rain = 0
KFL1 121216Z 08006KT M01/M02 A303 RMK A01 T10141019  RH  097%=      5-min Rain = 0
KFL1 121217Z 08006KT M01/M02 A303 RMK A01 T10141018  RH  097%=      5-min Rain = 0
KFL1 121218Z 08006KT M01/M02 A303 RMK A01 T10141017  RH  097%=      5-min Rain = 0
KFL1 121219Z 08006KT M01/M02 A303 RMK A01 T10141017  RH  098%=      5-min Rain = 0
KFL1 121220Z 08006KT M01/M02 A303 RMK A01 T10131016  RH  098%=      5-min Rain = 0
KFL1 121221Z 08007KT M01/M02 A303 RMK A01 T10141017  RH  098%=      5-min Rain = 0
KFL1 121222Z 08006KT M01/M02 A303 RMK A01 T10141017  RH  097%=      5-min Rain = 0
KFL1 121223Z 08006KT M02/M02 A303 RMK A01 T10151019  RH  097%=      5-min Rain = 0
KFL1 121224Z 09006KT M02/M02 A303 RMK A01 T10151019  RH  097%=      5-min Rain = 0
KFL1 121225Z 09005KT M02/M02 A303 RMK A01 T10161020  RH  097%=      5-min Rain = 0
KFL1 121226Z 09005KT M02/M02 A3031 RMK A01 T10161020  RH  097%=      5-min Rain = 0
KFL1 121227Z 09005KT M02/M02 A3031 RMK A01 T10171022  RH  097%=      5-min Rain = 0
KFL1 121228Z 09005KT M02/M02 A3031 RMK A01 T10171021  RH  097%=      5-min Rain = 0
KFL1 121229Z 09005KT M02/M02 A3031 RMK A01 T10171020  RH  097%=      5-min Rain = 0
KFL1 121230Z 10005KT M02/M02 A3031 RMK A01 T10151018  RH  098%=      5-min Rain = 0
KFL1 121231Z 10004KT M02/M02 A3031 RMK A01 T10161020  RH  098%=      5-min Rain = 0
KFL1 121232Z 10005KT M02/M02 A3031 RMK A01 T10151018  RH  098%=      5-min Rain = 0
KFL1 121233Z 09004KT M02/M02 A3031 RMK A01 T10161019  RH  098%=      5-min Rain = 0
KFL1 121234Z 10004KT M02/M02 A3031 RMK A01 T10161020  RH  098%=      5-min Rain = 0
KFL1 121235Z 10004KT M02/M02 A3031 RMK A01 T10181021  RH  098%=      5-min Rain = 0
KFL1 121236Z 10005KT M02/M02 A3031 RMK A01 T10191022  RH  098%=      5-min Rain = 0
KFL1 121237Z 10004KT M02/M02 A3031 RMK A01 T10181021  RH  098%=      5-min Rain = 0
KFL1 121238Z 10005KT M02/M02 A3031 RMK A01 T10181021  RH  098%=      5-min Rain = 0
KFL1 121239Z 10005KT M02/M02 A3031 RMK A01 T10171020  RH  098%=      5-min Rain = 0
KFL1 121240Z 10005KT M02/M02 A3031 RMK A01 T10181020  RH  098%=      5-min Rain = 0
KFL1 121241Z 10005KT M02/M02 A3031 RMK A01 T10181021  RH  098%=      5-min Rain = 0
KFL1 121242Z 10005KT M02/M02 A3031 RMK A01 T10181020  RH  098%=      5-min Rain = 0
KFL1 121243Z 10005KT M02/M02 A3031 RMK A01 T10171020  RH  098%=      5-min Rain = 0
KFL1 121244Z 10005KT M02/M02 A3031 RMK A01 T10171020  RH  098%=      5-min Rain = 0
KFL1 121245Z 10005KT M02/M02 A3031 RMK A01 T10171019  RH  099%=      5-min Rain = 0
KFL1 121246Z 10005KT M02/M02 A3031 RMK A01 T10161018  RH  099%=      5-min Rain = 0
KFL1 121247Z 10005KT M02/M02 A3031 RMK A01 T10171019  RH  099%=      5-min Rain = 0
KFL1 121248Z 10005KT M02/M02 A3031 RMK A01 T10171019  RH  098%=      5-min Rain = 0
KFL1 121249Z 11005KT M02/M02 A3031 RMK A01 T10161019  RH  098%=      5-min Rain = 0
KFL1 121250Z 11004KT M02/M02 A3031 RMK A01 T10161018  RH  099%=      5-min Rain = 0
KFL1 121251Z 11004KT M02/M02 A3031 RMK A01 T10161017  RH  099%=      5-min Rain = 0
KFL1 121252Z 10004KT M02/M02 A3031 RMK A01 T10151016  RH  099%=      5-min Rain = 0
KFL1 121253Z 09004KT M02/M02 A3032 RMK A01 T10191022  RH  098%=      5-min Rain = 0
KFL1 121254Z 09004KT M02/M02 A3032 RMK A01 T10201024  RH  098%=      5-min Rain = 0
KFL1 121255Z 09004KT M02/M02 A3032 RMK A01 T10211024  RH  098%=      5-min Rain = 0
KFL1 121256Z 10004KT M02/M03 A3032 RMK A01 T10211025  RH  098%=      5-min Rain = 0
KFL1 121257Z 10004KT M02/M02 A3032 RMK A01 T10211024  RH  098%=      5-min Rain = 0
KFL1 121258Z 10005KT M02/M02 A3032 RMK A01 T10201022  RH  098%=      5-min Rain = 0
KFL1 121259Z 10005KT M02/M02 A3032 RMK A01 T10191022  RH  098%=      5-min Rain = 0
KFL1 121300Z 10004KT M02/M02 A3032 RMK A01 T10191021  RH  099%=      5-min Rain = 0
KFL1 121301Z 10005KT M02/M02 A3032 RMK A01 T10191021  RH  099%=      5-min Rain = 0
KFL1 121302Z 10005KT M02/M02 A3032 RMK A01 T10181020  RH  099%=      5-min Rain = 0
KFL1 121303Z 09005KT M02/M02 A3032 RMK A01 T10181019  RH  099%=      5-min Rain = 0
KFL1 121304Z 09005KT M02/M02 A3032 RMK A01 T10181020  RH  099%=      5-min Rain = 0
KFL1 121305Z 10005KT M02/M02 A3032 RMK A01 T10171019  RH  099%=      5-min Rain = 0
KFL1 121306Z 10005KT M02/M02 A3032 RMK A01 T10171018  RH  099%=      5-min Rain = 0
KFL1 121307Z 10005KT M02/M02 A3032 RMK A01 T10161018  RH  099%=      5-min Rain = 0
KFL1 121308Z 10005KT M02/M02 A3032 RMK A01 T10151016  RH  099%=      5-min Rain = 0
KFL1 121309Z 10005KT M02/M02 A3032 RMK A01 T10151016  RH  099%=      5-min Rain = 0
KFL1 121310Z 09005KT M02/M02 A3032 RMK A01 T10161017  RH  099%=      5-min Rain = 0
KFL1 121311Z 09005KT M02/M02 A3032 RMK A01 T10161017  RH  099%=      5-min Rain = 0
KFL1 121312Z 09005KT M02/M02 A3032 RMK A01 T10171018  RH  099%=      5-min Rain = 0
KFL1 121313Z 09005KT M02/M02 A3032 RMK A01 T10161017  RH  099%=      5-min Rain = 0
KFL1 121314Z 08005KT M02/M02 A3032 RMK A01 T10161017  RH  099%=      5-min Rain = 0
KFL1 121315Z 08006KT M02/M02 A3032 RMK A01 T10161018  RH  099%=      5-min Rain = 0
KFL1 121316Z 08006KT M02/M02 A3032 RMK A01 T10161017  RH  099%=      5-min Rain = 0
KFL1 121317Z 08005KT M02/M02 A3032 RMK A01 T10161018  RH  099%=      5-min Rain = 0
KFL1 121318Z 08006KT M02/M02 A3032 RMK A01 T10171018  RH  099%=      5-min Rain = 0
KFL1 121319Z 08005KT M02/M02 A3032 RMK A01 T10171018  RH  099%=      5-min Rain = 0
KFL1 121320Z 08005KT M02/M02 A3032 RMK A01 T10171019  RH  099%=      5-min Rain = 0
KFL1 121321Z 09005KT M02/M02 A3032 RMK A01 T10171019  RH  099%=      5-min Rain = 0
KFL1 121322Z 09005KT M02/M02 A3032 RMK A01 T10181020  RH  098%=      5-min Rain = 0
KFL1 121323Z 09004KT M02/M02 A3032 RMK A01 T10181020  RH  098%=      5-min Rain = 0
KFL1 121324Z 09004KT M02/M02 A3032 RMK A01 T10181020  RH  098%=      5-min Rain = 0
KFL1 121325Z 09005KT M02/M02 A3032 RMK A01 T10191021  RH  098%=      5-min Rain = 0
KFL1 121326Z 09004KT M02/M02 A3032 RMK A01 T10191021  RH  098%=      5-min Rain = 0
KFL1 121327Z 08005KT M02/M02 A3032 RMK A01 T10191022  RH  098%=      5-min Rain = 0
KFL1 121328Z 08004KT M02/M02 A3032 RMK A01 T10191021  RH  098%=      5-min Rain = 0
KFL1 121329Z 08004KT M02/M02 A3032 RMK A01 T10191022  RH  098%=      5-min Rain = 0
KFL1 121330Z 08004KT M02/M02 A3032 RMK A01 T10211024  RH  098%=      5-min Rain = 0
KFL1 121331Z 08005KT M02/M02 A3032 RMK A01 T10201024  RH  098%=      5-min Rain = 0
KFL1 121332Z 08005KT M02/M02 A3032 RMK A01 T10191021  RH  098%=      5-min Rain = 0
KFL1 121333Z 08005KT M02/M02 A3032 RMK A01 T10201023  RH  098%=      5-min Rain = 0
KFL1 121334Z 08005KT M02/M02 A3032 RMK A01 T10191022  RH  098%=      5-min Rain = 0
KFL1 121335Z 07005KT M02/M02 A3032 RMK A01 T10181022  RH  098%=      5-min Rain = 0
KFL1 121336Z 07005KT M02/M02 A3032 RMK A01 T10191022  RH  098%=      5-min Rain = 0
KFL1 121337Z 07005KT M02/M02 A3032 RMK A01 T10201023  RH  098%=      5-min Rain = 0
KFL1 121338Z 07005KT M02/M02 A3032 RMK A01 T10181022  RH  098%=      5-min Rain = 0
KFL1 121339Z 07005KT M02/M02 A3032 RMK A01 T10181022  RH  097%=      5-min Rain = 0
KFL1 121340Z 08005KT M02/M02 A3032 RMK A01 T10181021  RH  097%=      5-min Rain = 0
KFL1 121341Z 08005KT M02/M02 A3032 RMK A01 T10181022  RH  097%=      5-min Rain = 0
KFL1 121342Z 08005KT M02/M02 A3032 RMK A01 T10181022  RH  097%=      5-min Rain = 0
KFL1 121343Z 08005KT M02/M02 A3032 RMK A01 T10161020  RH  097%=      5-min Rain = 0
KFL1 121344Z 09005KT M02/M02 A3032 RMK A01 T10171021  RH  097%=      5-min Rain = 0
KFL1 121345Z 09005KT M02/M02 A3032 RMK A01 T10161021  RH  097%=      5-min Rain = 0
KFL1 121346Z 08004KT M02/M02 A3032 RMK A01 T10161021  RH  097%=      5-min Rain = 0
KFL1 121347Z 07004KT M02/M02 A3032 RMK A01 T10151020  RH  096%=      5-min Rain = 0
KFL1 121348Z 07004KT M01/M02 A3032 RMK A01 T10141019  RH  096%=      5-min Rain = 0
KFL1 121349Z 06004KT M02/M02 A3032 RMK A01 T10151021  RH  096%=      5-min Rain = 0
KFL1 121350Z 06004KT M02/M02 A3032 RMK A01 T10151021  RH  095%=      5-min Rain = 0
KFL1 121351Z 07004KT M01/M02 A3032 RMK A01 T10141021  RH  095%=      5-min Rain = 0
KFL1 121352Z 07004KT M01/M02 A3032 RMK A01 T10141021  RH  095%=      5-min Rain = 0
KFL1 121353Z 06004KT M01/M02 A3032 RMK A01 T10121020  RH  095%=      5-min Rain = 0
KFL1 121354Z 06004KT M01/M02 A3032 RMK A01 T10121020  RH  094%=      5-min Rain = 0
KFL1 121355Z 07005KT M01/M02 A3032 RMK A01 T10121020  RH  094%=      5-min Rain = 0
KFL1 121356Z 08005KT M01/M02 A3032 RMK A01 T10121021  RH  094%=      5-min Rain = 0
KFL1 121357Z 07005KT M01/M02 A3032 RMK A01 T10101019  RH  094%=      5-min Rain = 0
KFL1 121358Z 07005KT M01/M02 A3032 RMK A01 T10111020  RH  093%=      5-min Rain = 0
KFL1 121359Z 07005KT M01/M02 A3032 RMK A01 T10101021  RH  093%=      5-min Rain = 0
KFL1 121400Z 06004KT M01/M02 A3032 RMK A01 T10091020  RH  092%=      5-min Rain = 0
KFL1 121401Z 07005KT M01/M02 A3032 RMK A01 T10081019  RH  092%=      5-min Rain = 0
KFL1 121402Z 07005KT M01/M02 A3032 RMK A01 T10071019  RH  092%=      5-min Rain = 0
KFL1 121403Z 08006KT M01/M02 A3032 RMK A01 T10071019  RH  091%=      5-min Rain = 0
KFL1 121404Z 08005KT M01/M02 A3032 RMK A01 T10071019  RH  091%=      5-min Rain = 0
KFL1 121405Z 08005KT M01/M02 A3032 RMK A01 T10061019  RH  091%=      5-min Rain = 0
KFL1 121406Z 08005KT M01/M02 A3032 RMK A01 T10051019  RH  090%=      5-min Rain = 0
KFL1 121407Z 07004KT M00/M02 A3032 RMK A01 T10041019  RH  090%=      5-min Rain = 0
KFL1 121408Z 07004KT M00/M02 A3032 RMK A01 T10031018  RH  090%=      5-min Rain = 0
KFL1 121409Z 07004KT M00/M02 A3032 RMK A01 T10021018  RH  089%=      5-min Rain = 0
KFL1 121410Z 07003KT M00/M02 A3032 RMK A01 T10021018  RH  089%=      5-min Rain = 0
KFL1 121411Z 08004KT M00/M02 A3032 RMK A01 T10021019  RH  089%=      5-min Rain = 0
KFL1 121412Z 07003KT M00/M02 A3032 RMK A01 T10011017  RH  089%=      5-min Rain = 0
KFL1 121413Z 07004KT M00/M02 A3032 RMK A01 T10011018  RH  088%=      5-min Rain = 0
KFL1 121414Z 07004KT 00/M02 A3032 RMK A01 T00011017  RH  088%=      5-min Rain = 0
KFL1 121415Z 08005KT 00/02 A3032 RMK A01 T00000-18  RH  088%=      5-min Rain = 0
KFL1 121416Z 08004KT 00/02 A3032 RMK A01 T00000-18  RH  088%=      5-min Rain = 0
KFL1 121417Z 08004KT 00/M02 A3032 RMK A01 T00011016  RH  088%=      5-min Rain = 0
KFL1 121418Z 08004KT 00/M02 A3032 RMK A01 T00031015  RH  088%=      5-min Rain = 0
KFL1 121419Z 08004KT 00/M02 A3032 RMK A01 T00031015  RH  087%=      5-min Rain = 0
KFL1 121420Z 09005KT 00/M02 A3032 RMK A01 T00041015  RH  087%=      5-min Rain = 0
KFL1 121421Z 08004KT 01/M01 A3032 RMK A01 T00071013  RH  087%=      5-min Rain = 0
KFL1 121422Z 08004KT 01/M01 A3032 RMK A01 T00071013  RH  087%=      5-min Rain = 0
KFL1 121423Z 09005KT 01/M01 A3032 RMK A01 T00091011  RH  086%=      5-min Rain = 0
KFL1 121424Z 09004KT 01/M01 A3032 RMK A01 T00101010  RH  086%=      5-min Rain = 0
KFL1 121425Z 10004KT 01/M01 A3032 RMK A01 T00111011  RH  085%=      5-min Rain = 0
KFL1 121426Z 09005KT 01/M01 A3032 RMK A01 T00121011  RH  085%=      5-min Rain = 0
KFL1 121427Z 10005KT 01/M01 A3032 RMK A01 T00131010  RH  085%=      5-min Rain = 0
KFL1 121428Z 09005KT 01/M01 A3032 RMK A01 T00141010  RH  085%=      5-min Rain = 0
KFL1 121429Z 09004KT 01/M01 A3032 RMK A01 T00141009  RH  085%=      5-min Rain = 0
KFL1 121430Z 09006KT 01/M01 A3032 RMK A01 T00141008  RH  085%=      5-min Rain = 0
KFL1 121431Z 10004KT 02/M01 A3032 RMK A01 T00151009  RH  084%=      5-min Rain = 0
KFL1 121432Z 09004KT 02/M01 A3032 RMK A01 T00161010  RH  083%=      5-min Rain = 0
KFL1 121433Z 09004KT 02/M01 A3032 RMK A01 T00161010  RH  083%=      5-min Rain = 0
KFL1 121434Z 10004KT 02/M01 A3032 RMK A01 T00171011  RH  082%=      5-min Rain = 0
KFL1 121435Z 10005KT 02/M01 A3032 RMK A01 T00181009  RH  082%=      5-min Rain = 0
KFL1 121436Z 10006KT 02/M01 A3032 RMK A01 T00181009  RH  083%=      5-min Rain = 0
KFL1 121437Z 10006KT 02/M01 A3032 RMK A01 T00181007  RH  083%=      5-min Rain = 0
KFL1 121438Z 10006KT 02/M01 A3032 RMK A01 T00201005  RH  084%=      5-min Rain = 0
KFL1 121439Z 10006KT 02/M01 A3032 RMK A01 T00201007  RH  082%=      5-min Rain = 0
KFL1 121440Z 10005KT 02/M01 A3032 RMK A01 T00211006  RH  083%=      5-min Rain = 0
KFL1 121441Z 11005KT 02/M01 A3032 RMK A01 T00211005  RH  083%=      5-min Rain = 0
KFL1 121442Z 10006KT 02/M01 A3032 RMK A01 T00221006  RH  082%=      5-min Rain = 0
KFL1 121443Z 10006KT 02/M01 A3032 RMK A01 T00221006  RH  082%=      5-min Rain = 0
KFL1 121444Z 11005KT 02/M01 A3032 RMK A01 T00221005  RH  082%=      5-min Rain = 0
KFL1 121445Z 11005KT 02/M01 A3032 RMK A01 T00231006  RH  081%=      5-min Rain = 0
KFL1 121446Z 11005KT 02/M01 A3032 RMK A01 T00231006  RH  081%=      5-min Rain = 0
KFL1 121447Z 11005KT 02/M00 A3032 RMK A01 T00241004  RH  082%=      5-min Rain = 0
KFL1 121448Z 11007KT 02/M01 A3032 RMK A01 T00241007  RH  080%=      5-min Rain = 0
KFL1 121449Z 11005KT 02/M01 A3032 RMK A01 T00241007  RH  080%=      5-min Rain = 0
KFL1 121450Z 10005KT 02/M01 A3032 RMK A01 T00241008  RH  080%=      5-min Rain = 0
KFL1 121451Z 10006KT 02/M01 A3032 RMK A01 T00241007  RH  080%=      5-min Rain = 0
KFL1 121452Z 10005KT 02/M01 A3032 RMK A01 T00241007  RH  080%=      5-min Rain = 0
KFL1 121453Z 11006KT 02/M01 A3032 RMK A01 T00241009  RH  079%=      5-min Rain = 0
KFL1 121454Z 10007KT 02/M01 A3032 RMK A01 T00241008  RH  079%=      5-min Rain = 0
KFL1 121455Z 10006KT 03/M01 A3032 RMK A01 T00261005  RH  080%=      5-min Rain = 0
KFL1 121456Z 12005KT 03/M01 A3032 RMK A01 T00261006  RH  079%=      5-min Rain = 0
KFL1 121457Z 09005KT 03/M01 A3032 RMK A01 T00261009  RH  078%=      5-min Rain = 0
KFL1 121458Z 08006KT 03/M01 A3032 RMK A01 T00251006  RH  080%=      5-min Rain = 0
KFL1 121459Z 11005KT 03/M00 A3032 RMK A01 T00281001  RH  081%=      5-min Rain = 0
KFL1 121500Z 11007KT 03/M00 A3032 RMK A01 T00301003  RH  079%=      5-min Rain = 0
KFL1 121501Z 10006KT 03/M00 A3032 RMK A01 T00301004  RH  079%=      5-min Rain = 0
KFL1 121502Z 10005KT 03/M01 A3032 RMK A01 T00301005  RH  077%=      5-min Rain = 0
KFL1 121503Z 11004KT 03/M01 A3032 RMK A01 T00291006  RH  078%=      5-min Rain = 0
KFL1 121504Z 10004KT 03/M01 A3032 RMK A01 T00281009  RH  077%=      5-min Rain = 0
KFL1 121505Z 09006KT 03/M00 A3032 RMK A01 T00281004  RH  079%=      5-min Rain = 0
KFL1 121506Z 10007KT 03/00 A3032 RMK A01 T00310002  RH  081%=      5-min Rain = 0
KFL1 121507Z 10006KT 03/M00 A3032 RMK A01 T00321002  RH  078%=      5-min Rain = 0
KFL1 121508Z 11004KT 03/00 A3032 RMK A01 T003400-0  RH  078%=      5-min Rain = 0
KFL1 121509Z 12004KT 04/00 A3032 RMK A01 T00360000  RH  078%=      5-min Rain = 0
KFL1 121510Z 10005KT 04/M00 A3032 RMK A01 T00361003  RH  075%=      5-min Rain = 0
KFL1 121511Z 10005KT 04/M00 A3032 RMK A01 T00371004  RH  075%=      5-min Rain = 0
KFL1 121512Z 09004KT 04/M00 A3032 RMK A01 T00351002  RH  076%=      5-min Rain = 0
KFL1 121513Z 09005KT 04/00 A3032 RMK A01 T003500-0  RH  078%=      5-min Rain = 0
KFL1 121514Z 09006KT 04/M01 A3032 RMK A01 T00351005  RH  075%=      5-min Rain = 0
KFL1 121515Z 11005KT 03/M00 A3032 RMK A01 T00341003  RH  077%=      5-min Rain = 0
KFL1 121516Z 11004KT 04/M00 A3032 RMK A01 T00351001  RH  077%=      5-min Rain = 0
KFL1 121517Z 12004KT 04/M01 A3032 RMK A01 T00361005  RH  075%=      5-min Rain = 0
KFL1 121518Z 13005KT 03/M01 A3032 RMK A01 T00331010  RH  074%=      5-min Rain = 0
KFL1 121519Z 12005KT 03/M01 A3032 RMK A01 T00311008  RH  075%=      5-min Rain = 0
KFL1 121520Z 12006KT 03/M00 A3032 RMK A01 T00331003  RH  077%=      5-min Rain = 0
KFL1 121521Z 11005KT 04/M00 A3032 RMK A01 T00361001  RH  077%=      5-min Rain = 0
KFL1 121522Z 12003KT 04/M01 A3032 RMK A01 T00351007  RH  074%=      5-min Rain = 0
KFL1 121523Z 11004KT 04/M01 A3032 RMK A01 T00351005  RH  075%=      5-min Rain = 0
KFL1 121524Z 14004KT 03/M01 A3032 RMK A01 T00341007  RH  075%=      5-min Rain = 0
KFL1 121525Z 13004KT 03/M01 A3032 RMK A01 T00331008  RH  075%=      5-min Rain = 0
KFL1 121526Z 15005KT 04/M00 A3032 RMK A01 T00351001  RH  077%=      5-min Rain = 0
KFL1 121527Z 14005KT 04/M00 A3032 RMK A01 T00381003  RH  075%=      5-min Rain = 0
KFL1 121528Z 13004KT 04/M01 A3032 RMK A01 T00371005  RH  074%=      5-min Rain = 0
KFL1 121529Z 12004KT 04/M01 A3032 RMK A01 T00361007  RH  074%=      5-min Rain = 0
KFL1 121530Z 10004KT 03/M01 A3032 RMK A01 T00341007  RH  074%=      5-min Rain = 0
KFL1 121531Z 13003KT 03/M01 A3032 RMK A01 T00321008  RH  075%=      5-min Rain = 0
KFL1 121532Z 12003KT 03/M01 A3032 RMK A01 T00321006  RH  076%=      5-min Rain = 0
KFL1 121533Z 12005KT 03/M01 A3033 RMK A01 T00301008  RH  076%=      5-min Rain = 0
KFL1 121534Z 11003KT 03/M01 A3033 RMK A01 T00311005  RH  077%=      5-min Rain = 0
KFL1 121535Z 12004KT 03/M01 A3033 RMK A01 T00311005  RH  077%=      5-min Rain = 0
KFL1 121536Z 13004KT 03/M01 A3033 RMK A01 T00321006  RH  076%=      5-min Rain = 0
KFL1 121537Z 14004KT 03/M01 A3033 RMK A01 T00291010  RH  075%=      5-min Rain = 0
KFL1 121538Z 15004KT 03/M01 A3033 RMK A01 T00281010  RH  076%=      5-min Rain = 0
KFL1 121539Z 13004KT 03/M01 A3033 RMK A01 T00271011  RH  076%=      5-min Rain = 0
KFL1 121540Z 13004KT 03/M01 A3033 RMK A01 T00261009  RH  077%=      5-min Rain = 0
KFL1 121541Z 12003KT 03/M01 A3033 RMK A01 T00291005  RH  079%=      5-min Rain = 0
KFL1 121542Z 12003KT 03/00 A3033 RMK A01 T003200-0  RH  080%=      5-min Rain = 0
KFL1 121543Z 14004KT 04/M00 A3033 RMK A01 T00371003  RH  075%=      5-min Rain = 0
KFL1 121544Z 16004KT 04/M01 A3033 RMK A01 T00361009  RH  073%=      5-min Rain = 0
KFL1 121545Z 12006KT 04/M01 A3033 RMK A01 T00351007  RH  074%=      5-min Rain = 0
KFL1 121546Z 14005KT 03/M01 A3033 RMK A01 T00341007  RH  075%=      5-min Rain = 0
KFL1 121547Z 15005KT 03/M01 A3033 RMK A01 T00341007  RH  075%=      5-min Rain = 0
KFL1 121548Z 15004KT 03/M01 A3033 RMK A01 T00341007  RH  074%=      5-min Rain = 0
KFL1 121549Z 17004KT 04/M00 A3033 RMK A01 T00361004  RH  075%=      5-min Rain = 0
KFL1 121550Z 15004KT 04/M01 A3033 RMK A01 T00371006  RH  073%=      5-min Rain = 0
KFL1 121551Z 15006KT 04/M01 A3033 RMK A01 T00371005  RH  074%=      5-min Rain = 0
KFL1 121552Z 14004KT 04/M01 A3033 RMK A01 T00371005  RH  074%=      5-min Rain = 0
KFL1 121553Z 14005KT 04/M01 A3033 RMK A01 T00371007  RH  073%=      5-min Rain = 0
KFL1 121554Z 14004KT 04/M01 A3033 RMK A01 T00361008  RH  073%=      5-min Rain = 0
KFL1 121555Z 12004KT 04/M01 A3033 RMK A01 T00351010  RH  072%=      5-min Rain = 0
KFL1 121556Z 14004KT 03/M01 A3033 RMK A01 T00331009  RH  074%=      5-min Rain = 0
KFL1 121557Z 15004KT 03/M01 A3033 RMK A01 T00331008  RH  075%=      5-min Rain = 0
KFL1 121558Z 15004KT 03/M01 A3033 RMK A01 T00341008  RH  074%=      5-min Rain = 0
KFL1 121559Z 14005KT 03/M01 A3033 RMK A01 T00341007  RH  074%=      5-min Rain = 0
KFL1 121600Z 13004KT 03/M01 A3033 RMK A01 T00341009  RH  074%=      5-min Rain = 0
KFL1 121601Z 15003KT 03/M01 A3033 RMK A01 T00331007  RH  075%=      5-min Rain = 0
KFL1 121602Z 17003KT 03/M01 A3033 RMK A01 T00341007  RH  075%=      5-min Rain = 0
KFL1 121603Z 17003KT 03/M01 A3033 RMK A01 T00331006  RH  075%=      5-min Rain = 0
KFL1 121604Z 18004KT 03/M01 A3033 RMK A01 T00341006  RH  075%=      5-min Rain = 0
KFL1 121605Z 17005KT 03/M01 A3033 RMK A01 T00341008  RH  074%=      5-min Rain = 0
KFL1 121606Z 18005KT 03/M01 A3033 RMK A01 T00341009  RH  073%=      5-min Rain = 0
KFL1 121607Z 19004KT 03/M01 A3033 RMK A01 T00341009  RH  074%=      5-min Rain = 0
KFL1 121608Z 18004KT 03/M01 A3033 RMK A01 T00341008  RH  074%=      5-min Rain = 0
KFL1 121609Z 19003KT 03/M01 A3033 RMK A01 T00341008  RH  074%=      5-min Rain = 0
KFL1 121610Z 21002KT 03/M01 A3033 RMK A01 T00341007  RH  074%=      5-min Rain = 0
KFL1 121611Z 19003KT 04/M01 A3033 RMK A01 T00351006  RH  074%=      5-min Rain = 0
KFL1 121612Z 16004KT 04/M01 A3033 RMK A01 T00371006  RH  073%=      5-min Rain = 0
KFL1 121613Z 17004KT 04/M01 A3033 RMK A01 T00361009  RH  072%=      5-min Rain = 0
KFL1 121614Z 18003KT 04/M01 A3033 RMK A01 T00371007  RH  073%=      5-min Rain = 0
KFL1 121615Z 18004KT 04/M01 A3033 RMK A01 T00371007  RH  073%=      5-min Rain = 0
KFL1 121616Z 17005KT 04/M01 A3033 RMK A01 T00381007  RH  073%=      5-min Rain = 0
KFL1 121617Z 17003KT 04/M01 A3033 RMK A01 T00391007  RH  072%=      5-min Rain = 0
KFL1 121618Z 17003KT 04/M01 A3033 RMK A01 T00381009  RH  071%=      5-min Rain = 0
KFL1 121619Z 16003KT 04/M01 A3033 RMK A01 T00381007  RH  072%=      5-min Rain = 0
KFL1 121620Z 16002KT 04/M01 A3033 RMK A01 T00371011  RH  071%=      5-min Rain = 0
KFL1 121621Z 15002KT 04/M01 A3033 RMK A01 T00371012  RH  071%=      5-min Rain = 0
KFL1 121622Z 18002KT 03/M01 A3033 RMK A01 T00341014  RH  071%=      5-min Rain = 0
KFL1 121623Z 12001KT 03/M01 A3033 RMK A01 T00331013  RH  072%=      5-min Rain = 0
KFL1 121624Z 15001KT 03/M01 A3033 RMK A01 T00331008  RH  074%=      5-min Rain = 0
KFL1 121625Z 19001KT 04/M01 A3033 RMK A01 T00361008  RH  073%=      5-min Rain = 0
KFL1 121626Z 23003KT 04/M01 A3033 RMK A01 T00351007  RH  074%=      5-min Rain = 0
KFL1 121627Z 20003KT 04/M01 A3033 RMK A01 T00361007  RH  073%=      5-min Rain = 0
KFL1 121628Z 19005KT 04/M01 A3033 RMK A01 T00371008  RH  072%=      5-min Rain = 0
KFL1 121629Z 18004KT 04/M01 A3033 RMK A01 T00371011  RH  071%=      5-min Rain = 0
KFL1 121630Z 19002KT 04/M01 A3033 RMK A01 T00361010  RH  072%=      5-min Rain = 0
KFL1 121631Z 20002KT 04/M01 A3033 RMK A01 T00381010  RH  071%=      5-min Rain = 0
KFL1 121632Z 18002KT 04/M01 A3033 RMK A01 T00371010  RH  071%=      5-min Rain = 0
KFL1 121633Z 18004KT 04/M01 A3033 RMK A01 T00371008  RH  072%=      5-min Rain = 0
KFL1 121634Z 20004KT 04/M01 A3033 RMK A01 T00401008  RH  071%=      5-min Rain = 0
KFL1 121635Z 21005KT 04/M01 A3033 RMK A01 T00401008  RH  071%=      5-min Rain = 0
KFL1 121636Z 22004KT 04/M01 A3033 RMK A01 T00391008  RH  071%=      5-min Rain = 0
KFL1 121637Z 24003KT 04/M01 A3033 RMK A01 T00381011  RH  070%=      5-min Rain = 0
KFL1 121638Z 23003KT 04/M01 A3033 RMK A01 T00351012  RH  071%=      5-min Rain = 0
KFL1 121639Z 22003KT 03/M01 A3033 RMK A01 T00341011  RH  072%=      5-min Rain = 0
KFL1 121640Z 24001KT 04/M01 A3033 RMK A01 T00351010  RH  072%=      5-min Rain = 0
KFL1 121641Z 26002KT 04/M01 A3033 RMK A01 T00371007  RH  073%=      5-min Rain = 0
KFL1 121642Z 27003KT 04/M01 A3033 RMK A01 T00381007  RH  072%=      5-min Rain = 0
KFL1 121643Z 26006KT 04/M01 A3033 RMK A01 T00381007  RH  072%=      5-min Rain = 0
KFL1 121644Z 22005KT 04/M01 A3033 RMK A01 T00401005  RH  072%=      5-min Rain = 0
KFL1 121645Z 21004KT 04/M01 A3033 RMK A01 T00401009  RH  070%=      5-min Rain = 0
KFL1 121646Z 23003KT 04/M01 A3033 RMK A01 T00401011  RH  070%=      5-min Rain = 0
KFL1 121647Z 25004KT 04/M01 A3033 RMK A01 T00391011  RH  070%=      5-min Rain = 0
KFL1 121648Z 25003KT 04/M01 A3033 RMK A01 T00391011  RH  070%=      5-min Rain = 0
KFL1 121649Z 23004KT 04/M01 A3033 RMK A01 T00371012  RH  070%=      5-min Rain = 0
KFL1 121650Z 25002KT 04/M01 A3033 RMK A01 T00381011  RH  070%=      5-min Rain = 0
KFL1 121651Z 26001KT 04/M01 A3033 RMK A01 T00371012  RH  070%=      5-min Rain = 0
KFL1 121652Z 24003KT 04/M01 A3033 RMK A01 T00361012  RH  070%=      5-min Rain = 0
KFL1 121653Z 22003KT 04/M01 A3033 RMK A01 T00371010  RH  071%=      5-min Rain = 0
KFL1 121654Z 26003KT 04/M01 A3033 RMK A01 T00381012  RH  070%=      5-min Rain = 0
KFL1 121655Z 26001KT 04/M01 A3033 RMK A01 T00381013  RH  069%=      5-min Rain = 0
KFL1 121656Z 27001KT 04/M01 A3033 RMK A01 T00371014  RH  069%=      5-min Rain = 0
KFL1 121657Z 28001KT 04/M01 A3033 RMK A01 T00361012  RH  071%=      5-min Rain = 0
KFL1 121658Z 24003KT 04/M01 A3033 RMK A01 T00391008  RH  071%=      5-min Rain = 0
KFL1 121659Z 22003KT 04/M01 A3033 RMK A01 T00401010  RH  070%=      5-min Rain = 0
KFL1 121700Z 25002KT 04/M01 A3033 RMK A01 T00411012  RH  068%=      5-min Rain = 0
KFL1 121701Z 27003KT 04/M01 A3033 RMK A01 T00401013  RH  069%=      5-min Rain = 0
KFL1 121702Z 23004KT 04/M01 A3033 RMK A01 T00421007  RH  070%=      5-min Rain = 0
KFL1 121703Z 22003KT 05/M00 A3033 RMK A01 T00461002  RH  071%=      5-min Rain = 0
KFL1 121704Z 23002KT 05/M00 A3033 RMK A01 T00501002  RH  069%=      5-min Rain = 0
KFL1 121705Z 22002KT 05/M01 A3033 RMK A01 T00521006  RH  066%=      5-min Rain = 0
KFL1 121706Z 24002KT 05/M00 A3033 RMK A01 T00541003  RH  066%=      5-min Rain = 0
KFL1 121707Z 22005KT 06/M00 A3033 RMK A01 T00571001  RH  066%=      5-min Rain = 0
KFL1 121708Z 24004KT 06/M01 A3033 RMK A01 T00581008  RH  063%=      5-min Rain = 0
KFL1 121709Z 22002KT 05/M01 A3033 RMK A01 T00541011  RH  063%=      5-min Rain = 0
KFL1 121710Z 20003KT 05/M01 A3033 RMK A01 T00531010  RH  064%=      5-min Rain = 0
KFL1 121711Z 18003KT 05/M01 A3033 RMK A01 T00531011  RH  063%=      5-min Rain = 0
KFL1 121712Z 20002KT 05/M01 A3033 RMK A01 T00521013  RH  063%=      5-min Rain = 0
KFL1 121713Z 19001KT 05/M01 A3033 RMK A01 T00511014  RH  063%=      5-min Rain = 0
KFL1 121714Z 14002KT 05/M01 A3033 RMK A01 T00491014  RH  064%=      5-min Rain = 0
KFL1 121715Z 16001KT 05/M01 A3033 RMK A01 T00491014  RH  064%=      5-min Rain = 0
KFL1 121716Z 35001KT 05/M01 A3033 RMK A01 T00481014  RH  064%=      5-min Rain = 0
KFL1 121717Z 06000KT 05/M01 A3033 RMK A01 T00481012  RH  065%=      5-min Rain = 0
KFL1 121718Z 19002KT 05/M01 A3033 RMK A01 T00501010  RH  065%=      5-min Rain = 0
KFL1 121719Z 20004KT 05/M01 A3033 RMK A01 T00521011  RH  064%=      5-min Rain = 0
KFL1 121720Z 19003KT 06/M01 A3033 RMK A01 T00551007  RH  064%=      5-min Rain = 0
KFL1 121721Z 20004KT 06/M01 A3033 RMK A01 T00581009  RH  062%=      5-min Rain = 0
KFL1 121722Z 20002KT 06/M01 A3033 RMK A01 T00601009  RH  061%=      5-min Rain = 0
KFL1 121723Z 21004KT 06/M01 A3033 RMK A01 T00641005  RH  061%=      5-min Rain = 0
KFL1 121724Z 22003KT 07/M01 A3033 RMK A01 T00651009  RH  059%=      5-min Rain = 0
KFL1 121725Z 21004KT 07/M01 A3033 RMK A01 T00651010  RH  059%=      5-min Rain = 0
KFL1 121726Z 18005KT 06/M01 A3033 RMK A01 T00631013  RH  058%=      5-min Rain = 0
KFL1 121727Z 17003KT 06/M01 A3033 RMK A01 T00621014  RH  058%=      5-min Rain = 0
KFL1 121728Z 20003KT 06/M01 A3033 RMK A01 T00621013  RH  058%=      5-min Rain = 0
KFL1 121729Z 25001KT 06/M02 A3033 RMK A01 T00601016  RH  058%=      5-min Rain = 0
KFL1 121730Z 23003KT 06/M01 A3033 RMK A01 T00601014  RH  059%=      5-min Rain = 0
KFL1 121731Z 24003KT 06/M01 A3033 RMK A01 T00611014  RH  059%=      5-min Rain = 0
KFL1 121732Z 20002KT 06/M02 A3033 RMK A01 T00581018  RH  058%=      5-min Rain = 0
KFL1 121733Z 20002KT 06/M02 A3032 RMK A01 T00551020  RH  058%=      5-min Rain = 0
KFL1 121734Z 23003KT 05/M02 A3032 RMK A01 T00541019  RH  059%=      5-min Rain = 0
KFL1 121735Z 21003KT 05/M02 A3032 RMK A01 T00541018  RH  060%=      5-min Rain = 0
KFL1 121736Z 21004KT 05/M02 A3032 RMK A01 T00541017  RH  060%=      5-min Rain = 0
KFL1 121737Z 19004KT 05/M02 A3032 RMK A01 T00521018  RH  060%=      5-min Rain = 0
KFL1 121738Z 18004KT 05/M02 A3032 RMK A01 T00521017  RH  061%=      5-min Rain = 0
KFL1 121739Z 18002KT 05/M02 A3032 RMK A01 T00531016  RH  061%=      5-min Rain = 0
KFL1 121740Z 17000KT 05/M02 A3032 RMK A01 T00541016  RH  061%=      5-min Rain = 0
KFL1 121741Z 04001KT 05/M02 A3032 RMK A01 T00521016  RH  061%=      5-min Rain = 0
KFL1 121742Z 27001KT 05/M01 A3032 RMK A01 T00521013  RH  063%=      5-min Rain = 0
KFL1 121743Z 24004KT 05/M01 A3032 RMK A01 T00531011  RH  063%=      5-min Rain = 0
KFL1 121744Z 20006KT 05/M01 A3032 RMK A01 T00541012  RH  063%=      5-min Rain = 0
KFL1 121745Z 21006KT 06/M01 A3032 RMK A01 T00581008  RH  063%=      5-min Rain = 0
KFL1 121746Z 20005KT 07/M00 A3032 RMK A01 T00651003  RH  062%=      5-min Rain = 0
KFL1 121747Z 19006KT 07/M00 A3032 RMK A01 T00701004  RH  059%=      5-min Rain = 0
KFL1 121748Z 20006KT 07/M00 A3032 RMK A01 T00741004  RH  058%=      5-min Rain = 0
KFL1 121749Z 19006KT 08/M01 A3032 RMK A01 T00751009  RH  055%=      5-min Rain = 0
KFL1 121750Z 18003KT 07/M01 A3032 RMK A01 T00731010  RH  055%=      5-min Rain = 0
KFL1 121751Z 22005KT 07/M01 A3032 RMK A01 T00741008  RH  056%=      5-min Rain = 0
KFL1 121752Z 19007KT 07/M01 A3032 RMK A01 T00731009  RH  056%=      5-min Rain = 0
KFL1 121753Z 18005KT 07/M01 A3032 RMK A01 T00721011  RH  056%=      5-min Rain = 0
KFL1 121754Z 21005KT 07/M01 A3032 RMK A01 T00721009  RH  056%=      5-min Rain = 0
KFL1 121755Z 21005KT 07/M01 A3032 RMK A01 T00711011  RH  056%=      5-min Rain = 0
KFL1 121756Z 20005KT 07/M01 A3032 RMK A01 T00701010  RH  057%=      5-min Rain = 0
KFL1 121757Z 21006KT 07/M01 A3032 RMK A01 T00711006  RH  058%=      5-min Rain = 0
KFL1 121758Z 22009KT 07/M01 A3032 RMK A01 T00731007  RH  057%=      5-min Rain = 0
KFL1 121759Z 22008KT 07/M01 A3032 RMK A01 T00681012  RH  057%=      5-min Rain = 0
KFL1 121800Z 23008KT 06/M02 A3032 RMK A01 T00611015  RH  058%=      5-min Rain = 0
KFL1 121801Z 22006KT 06/M01 A3032 RMK A01 T00571014  RH  060%=      5-min Rain = 0
KFL1 121802Z 23005KT 06/M01 A3032 RMK A01 T00571012  RH  061%=      5-min Rain = 0
KFL1 121803Z 22003KT 06/M01 A3032 RMK A01 T00571012  RH  061%=      5-min Rain = 0
KFL1 121804Z 23004KT 06/M00 A3032 RMK A01 T00621004  RH  063%=      5-min Rain = 0
KFL1 121805Z 22005KT 06/M01 A3032 RMK A01 T00631011  RH  059%=      5-min Rain = 0
KFL1 121806Z 22005KT 06/M01 A3032 RMK A01 T00591014  RH  059%=      5-min Rain = 0
KFL1 121807Z 24004KT 06/M01 A3032 RMK A01 T00571014  RH  060%=      5-min Rain = 0
KFL1 121808Z 23003KT 06/M01 A3032 RMK A01 T00561014  RH  061%=      5-min Rain = 0
KFL1 121809Z 25005KT 06/M01 A3032 RMK A01 T00551014  RH  061%=      5-min Rain = 0
KFL1 121810Z 25006KT 05/M01 A3032 RMK A01 T00541014  RH  062%=      5-min Rain = 0
KFL1 121811Z 25006KT 05/M01 A3032 RMK A01 T00541012  RH  062%=      5-min Rain = 0
KFL1 121812Z 27005KT 05/M01 A3031 RMK A01 T00541011  RH  063%=      5-min Rain = 0
KFL1 121813Z 29003KT 05/M01 A3031 RMK A01 T00541011  RH  063%=      5-min Rain = 0
KFL1 121814Z 32003KT 06/M01 A3031 RMK A01 T00551010  RH  063%=      5-min Rain = 0
KFL1 121815Z 29003KT 06/M01 A3031 RMK A01 T00551010  RH  063%=      5-min Rain = 0
KFL1 121816Z 26003KT 06/M01 A3031 RMK A01 T00551010  RH  063%=      5-min Rain = 0
KFL1 121817Z 26005KT 06/M01 A3031 RMK A01 T00561010  RH  062%=      5-min Rain = 0
KFL1 121818Z 24008KT 06/M01 A3031 RMK A01 T00551011  RH  062%=      5-min Rain = 0
KFL1 121819Z 23005KT 06/M01 A3031 RMK A01 T00561012  RH  062%=      5-min Rain = 0
KFL1 121820Z 24004KT 06/M01 A3031 RMK A01 T00551013  RH  061%=      5-min Rain = 0
KFL1 121821Z 26005KT 06/M01 A3031 RMK A01 T00571010  RH  062%=      5-min Rain = 0
KFL1 121822Z 25005KT 06/M01 A3031 RMK A01 T00611008  RH  061%=      5-min Rain = 0
KFL1 121823Z 24006KT 07/M00 A3031 RMK A01 T00681003  RH  061%=      5-min Rain = 0
KFL1 121824Z 27006KT 07/M00 A3031 RMK A01 T00731002  RH  059%=      5-min Rain = 0
KFL1 121825Z 28004KT 07/M01 A3031 RMK A01 T00731009  RH  056%=      5-min Rain = 0
KFL1 121826Z 28004KT 07/M01 A3031 RMK A01 T00691014  RH  056%=      5-min Rain = 0
KFL1 121827Z 26003KT 07/M01 A3031 RMK A01 T00681012  RH  057%=      5-min Rain = 0
KFL1 121828Z 26003KT 07/M02 A3031 RMK A01 T00651015  RH  056%=      5-min Rain = 0
KFL1 121829Z 28002KT 06/M02 A3031 RMK A01 T00631018  RH  056%=      5-min Rain = 0
KFL1 121830Z 25001KT 06/M02 A303 RMK A01 T00611019  RH  057%=      5-min Rain = 0
KFL1 121831Z 18000KT 06/M02 A303 RMK A01 T00601019  RH  057%=      5-min Rain = 0
KFL1 121832Z 33001KT 06/M02 A303 RMK A01 T00571020  RH  058%=      5-min Rain = 0
KFL1 121833Z 35001KT 06/M02 A303 RMK A01 T00551021  RH  058%=      5-min Rain = 0
KFL1 121834Z 32002KT 06/M02 A303 RMK A01 T00551019  RH  059%=      5-min Rain = 0
KFL1 121835Z 28005KT 05/M02 A303 RMK A01 T00541018  RH  060%=      5-min Rain = 0
KFL1 121836Z 24003KT 06/M02 A303 RMK A01 T00571015  RH  060%=      5-min Rain = 0
KFL1 121837Z 26002KT 06/M02 A303 RMK A01 T00571016  RH  059%=      5-min Rain = 0
KFL1 121838Z 27003KT 06/M01 A303 RMK A01 T00601014  RH  059%=      5-min Rain = 0
KFL1 121839Z 11005KT 06/M01 A303 RMK A01 T00631014  RH  058%=      5-min Rain = 0
KFL1 121840Z 13007KT 07/M01 A303 RMK A01 T00661013  RH  057%=      5-min Rain = 0
KFL1 121841Z 16004KT 07/M01 A303 RMK A01 T00731009  RH  056%=      5-min Rain = 0
KFL1 121842Z 17005KT 08/M01 A303 RMK A01 T00801007  RH  054%=      5-min Rain = 0
KFL1 121843Z 18008KT 09/M01 A303 RMK A01 T00851011  RH  051%=      5-min Rain = 0
KFL1 121844Z 17006KT 08/M02 A303 RMK A01 T00811017  RH  050%=      5-min Rain = 0
KFL1 121845Z 17008KT 08/M02 A303 RMK A01 T00761019  RH  051%=      5-min Rain = 0
KFL1 121846Z 17011KT 07/M02 A303 RMK A01 T00741018  RH  052%=      5-min Rain = 0
KFL1 121847Z 17009KT 07/M02 A303 RMK A01 T00741017  RH  053%=      5-min Rain = 0
KFL1 121848Z 17006KT 08/M01 A303 RMK A01 T00781011  RH  053%=      5-min Rain = 0
KFL1 121849Z 16006KT 08/M01 A303 RMK A01 T00811012  RH  052%=      5-min Rain = 0
KFL1 121850Z 17008KT 08/M01 A3029 RMK A01 T00821012  RH  051%=      5-min Rain = 0
KFL1 121851Z 15004KT 08/M01 A303 RMK A01 T00841014  RH  050%=      5-min Rain = 0
KFL1 121852Z 18005KT 09/M01 A303 RMK A01 T00851014  RH  050%=      5-min Rain = 0
KFL1 121853Z 17005KT 08/M01 A3029 RMK A01 T00841013  RH  050%=      5-min Rain = 0
KFL1 121854Z 16009KT 08/M01 A3029 RMK A01 T00841012  RH  051%=      5-min Rain = 0
KFL1 121855Z 16009KT 08/M01 A3029 RMK A01 T00821014  RH  051%=      5-min Rain = 0
KFL1 121856Z 13005KT 08/M02 A3029 RMK A01 T00791016  RH  051%=      5-min Rain = 0
KFL1 121857Z 15005KT 08/M01 A3029 RMK A01 T00801014  RH  052%=      5-min Rain = 0
KFL1 121858Z 21005KT 08/M01 A3029 RMK A01 T00791013  RH  052%=      5-min Rain = 0
KFL1 121859Z 19005KT 08/M01 A3029 RMK A01 T00831010  RH  052%=      5-min Rain = 0
KFL1 121900Z 16009KT 09/M01 A3029 RMK A01 T00861010  RH  051%=      5-min Rain = 0
KFL1 121901Z 15007KT 08/M01 A3029 RMK A01 T00841013  RH  050%=      5-min Rain = 0
KFL1 121902Z 16005KT 08/M01 A3029 RMK A01 T00841014  RH  050%=      5-min Rain = 0
KFL1 121903Z 16003KT 08/M01 A3029 RMK A01 T00831013  RH  051%=      5-min Rain = 0
KFL1 121904Z 16006G11KT 09/M01 A3029 RMK A01 T00861007  RH  052%=      5-min Rain = 0
KFL1 121905Z 15007KT 09/M01 A3029 RMK A01 T00901008  RH  050%=      5-min Rain = 0
KFL1 121906Z 18007KT 09/M01 A3029 RMK A01 T00891011  RH  049%=      5-min Rain = 0
KFL1 121907Z 19008KT 09/M01 A3029 RMK A01 T00881011  RH  050%=      5-min Rain = 0
KFL1 121908Z 21008KT 09/M01 A3029 RMK A01 T00881013  RH  049%=      5-min Rain = 0
KFL1 121909Z 22005KT 09/M01 A3029 RMK A01 T00881013  RH  049%=      5-min Rain = 0
KFL1 121910Z 22004KT 09/M01 A3029 RMK A01 T00881012  RH  049%=      5-min Rain = 0
KFL1 121911Z 21004KT 09/M01 A3029 RMK A01 T00881011  RH  050%=      5-min Rain = 0
KFL1 121912Z 21005KT 09/M01 A3029 RMK A01 T00881012  RH  049%=      5-min Rain = 0
KFL1 121913Z 24004KT 08/M02 A3029 RMK A01 T00841016  RH  049%=      5-min Rain = 0
KFL1 121914Z 22003G8KT 08/M01 A3029 RMK A01 T00831014  RH  050%=      5-min Rain = 0
KFL1 121915Z 21009KT 08/M02 A3029 RMK A01 T00841015  RH  050%=      5-min Rain = 0
KFL1 121916Z 21008KT 08/M02 A3029 RMK A01 T00831015  RH  050%=      5-min Rain = 0
KFL1 121917Z 23007KT 08/M01 A3029 RMK A01 T00831013  RH  051%=      5-min Rain = 0
KFL1 121918Z 23007KT 08/M01 A3029 RMK A01 T00831013  RH  051%=      5-min Rain = 0
KFL1 121919Z 19006G11KT 08/M01 A3029 RMK A01 T00831014  RH  050%=      5-min Rain = 0
KFL1 121920Z 17008KT 08/M01 A3029 RMK A01 T00831013  RH  051%=      5-min Rain = 0
KFL1 121921Z 17004KT 08/M02 A3029 RMK A01 T00831015  RH  050%=      5-min Rain = 0
KFL1 121922Z 17009KT 08/M02 A3028 RMK A01 T00811015  RH  051%=      5-min Rain = 0
KFL1 121923Z 16007KT 08/M02 A3029 RMK A01 T00781017  RH  051%=      5-min Rain = 0
KFL1 121924Z 17006KT 08/M02 A3028 RMK A01 T00781015  RH  052%=      5-min Rain = 0
KFL1 121925Z 16004KT 08/M01 A3028 RMK A01 T00781013  RH  053%=      5-min Rain = 0
KFL1 121926Z 20008KT 08/M01 A3028 RMK A01 T00801011  RH  053%=      5-min Rain = 0
KFL1 121927Z 20008KT 08/M01 A3028 RMK A01 T00821011  RH  052%=      5-min Rain = 0
KFL1 121928Z 21007KT 08/M01 A3028 RMK A01 T00831010  RH  052%=      5-min Rain = 0
KFL1 121929Z 23006KT 08/M01 A3028 RMK A01 T00821012  RH  051%=      5-min Rain = 0
KFL1 121930Z 25005KT 08/M01 A3028 RMK A01 T00811013  RH  051%=      5-min Rain = 0
KFL1 121931Z 22005KT 08/M01 A3028 RMK A01 T00821010  RH  052%=      5-min Rain = 0
KFL1 121932Z 22006KT 08/M01 A3028 RMK A01 T00831012  RH  051%=      5-min Rain = 0
KFL1 121933Z 21008KT 08/M01 A3028 RMK A01 T00831011  RH  052%=      5-min Rain = 0
KFL1 121934Z 20008KT 09/M01 A3028 RMK A01 T00851010  RH  051%=      5-min Rain = 0
KFL1 121935Z 20005KT 09/M01 A3028 RMK A01 T00871011  RH  050%=      5-min Rain = 0
KFL1 121936Z 20005KT 09/M01 A3028 RMK A01 T00901008  RH  050%=      5-min Rain = 0
KFL1 121937Z 24006KT 09/M01 A3028 RMK A01 T00891014  RH  049%=      5-min Rain = 0
KFL1 121938Z 23004KT 09/M01 A3028 RMK A01 T00881013  RH  049%=      5-min Rain = 0
KFL1 121939Z 20007KT 09/M01 A3028 RMK A01 T00881011  RH  050%=      5-min Rain = 0
KFL1 121940Z 19007KT 09/M01 A3028 RMK A01 T00911011  RH  049%=      5-min Rain = 0
KFL1 121941Z 21007KT 10/M01 A3028 RMK A01 T00971007  RH  049%=      5-min Rain = 0
KFL1 121942Z 19005KT 10/M01 A3028 RMK A01 T01031005  RH  047%=      5-min Rain = 0
KFL1 121943Z 19005KT 10/M01 A3027 RMK A01 T01021011  RH  045%=      5-min Rain = 0
KFL1 121944Z 18007KT 10/M01 A3027 RMK A01 T01021011  RH  045%=      5-min Rain = 0
KFL1 121945Z 16006KT 10/M02 A3027 RMK A01 T01001015  RH  045%=      5-min Rain = 0
KFL1 121946Z 17007KT 10/M02 A3027 RMK A01 T00961018  RH  045%=      5-min Rain = 0
KFL1 121947Z 16005KT 09/M02 A3027 RMK A01 T00901021  RH  046%=      5-min Rain = 0
KFL1 121948Z 20004KT 09/M02 A3027 RMK A01 T00871018  RH  048%=      5-min Rain = 0
KFL1 121949Z 19006KT 09/M01 A3027 RMK A01 T00881013  RH  049%=      5-min Rain = 0
KFL1 121950Z 18004KT 09/M01 A3027 RMK A01 T00891014  RH  049%=      5-min Rain = 0
KFL1 121951Z 19004KT 09/M01 A3027 RMK A01 T00891014  RH  048%=      5-min Rain = 0
KFL1 121952Z 21004KT 09/M01 A3027 RMK A01 T00891014  RH  049%=      5-min Rain = 0
KFL1 121953Z 25003KT 09/M01 A3027 RMK A01 T00881014  RH  049%=      5-min Rain = 0
KFL1 121954Z 19005KT 09/M01 A3027 RMK A01 T00911011  RH  049%=      5-min Rain = 0
KFL1 121955Z 21006KT 09/M01 A3027 RMK A01 T00911012  RH  048%=      5-min Rain = 0
KFL1 121956Z 21007KT 10/M01 A3027 RMK A01 T00951010  RH  048%=      5-min Rain = 0
KFL1 121957Z 21004KT 10/M01 A3027 RMK A01 T00961013  RH  046%=      5-min Rain = 0
KFL1 121958Z 23002KT 09/M02 A3027 RMK A01 T00911017  RH  047%=      5-min Rain = 0
KFL1 121959Z 25004KT 09/M02 A3027 RMK A01 T00891016  RH  048%=      5-min Rain = 0
KFL1 122000Z 21007KT 09/M02 A3026 RMK A01 T00871016  RH  048%=      5-min Rain = 0
KFL1 122001Z 21007KT 09/M02 A3027 RMK A01 T00871016  RH  049%=      5-min Rain = 0
KFL1 122002Z 23006KT 09/M02 A3027 RMK A01 T00851015  RH  049%=      5-min Rain = 0
KFL1 122003Z 24005KT 09/M01 A3027 RMK A01 T00851014  RH  050%=      5-min Rain = 0
KFL1 122004Z 25005KT 08/M02 A3026 RMK A01 T00841015  RH  050%=      5-min Rain = 0
KFL1 122005Z 25004KT 08/M01 A3026 RMK A01 T00841014  RH  050%=      5-min Rain = 0
KFL1 122006Z 19002KT 08/M02 A3026 RMK A01 T00821015  RH  050%=      5-min Rain = 0
KFL1 122007Z 15005KT 08/M02 A3026 RMK A01 T00821017  RH  050%=      5-min Rain = 0
KFL1 122008Z 18005KT 08/M02 A3026 RMK A01 T00821016  RH  050%=      5-min Rain = 0
KFL1 122009Z 22006KT 08/M01 A3026 RMK A01 T00831014  RH  050%=      5-min Rain = 0
KFL1 122010Z 23004KT 08/M02 A3026 RMK A01 T00811016  RH  050%=      5-min Rain = 0
KFL1 122011Z 22004KT 08/M02 A3026 RMK A01 T00811015  RH  051%=      5-min Rain = 0
KFL1 122012Z 22006KT 08/M01 A3026 RMK A01 T00821013  RH  051%=      5-min Rain = 0
KFL1 122013Z 22005KT 08/M01 A3026 RMK A01 T00821014  RH  051%=      5-min Rain = 0
KFL1 122014Z 20002KT 08/M02 A3026 RMK A01 T00831016  RH  050%=      5-min Rain = 0
KFL1 122015Z 18003KT 08/M02 A3026 RMK A01 T00831015  RH  050%=      5-min Rain = 0
KFL1 122016Z 21006KT 08/M01 A3026 RMK A01 T00841011  RH  051%=      5-min Rain = 0
KFL1 122017Z 21005KT 09/M01 A3026 RMK A01 T00881010  RH  050%=      5-min Rain = 0
KFL1 122018Z 26004KT 09/M01 A3026 RMK A01 T00881013  RH  049%=      5-min Rain = 0
KFL1 122019Z 24006KT 09/M01 A3026 RMK A01 T00911011  RH  049%=      5-min Rain = 0
KFL1 122020Z 24008KT 09/M01 A3026 RMK A01 T00911013  RH  048%=      5-min Rain = 0
KFL1 122021Z 25006KT 09/M02 A3026 RMK A01 T00901015  RH  048%=      5-min Rain = 0
KFL1 122022Z 27006KT 09/M02 A3026 RMK A01 T00881015  RH  048%=      5-min Rain = 0
KFL1 122023Z 24004KT 09/M01 A3025 RMK A01 T00881014  RH  049%=      5-min Rain = 0
KFL1 122024Z 23004KT 09/M02 A3025 RMK A01 T00871016  RH  048%=      5-min Rain = 0
KFL1 122025Z 24003KT 09/M02 A3025 RMK A01 T00871015  RH  049%=      5-min Rain = 0
KFL1 122026Z 25005KT 09/M01 A3025 RMK A01 T00901013  RH  048%=      5-min Rain = 0
KFL1 122027Z 30003KT 09/M02 A3025 RMK A01 T00881016  RH  048%=      5-min Rain = 0
KFL1 122028Z 29006KT 09/M02 A3025 RMK A01 T00881015  RH  049%=      5-min Rain = 0
KFL1 122029Z 30004KT 09/M01 A3025 RMK A01 T00901012  RH  049%=      5-min Rain = 0
KFL1 122030Z 30004KT 09/M01 A3025 RMK A01 T00931011  RH  048%=      5-min Rain = 0
KFL1 122031Z 30003KT 10/M01 A3025 RMK A01 T00951011  RH  047%=      5-min Rain = 0
KFL1 122032Z 28003KT 10/M01 A3025 RMK A01 T00961014  RH  046%=      5-min Rain = 0
KFL1 122033Z 25003KT 10/M01 A3025 RMK A01 T00951014  RH  047%=      5-min Rain = 0
KFL1 122034Z 23005KT 10/M01 A3025 RMK A01 T00981011  RH  047%=      5-min Rain = 0
KFL1 122035Z 24005KT 10/M01 A3025 RMK A01 T01001013  RH  045%=      5-min Rain = 0
KFL1 122036Z 28004KT 10/M02 A3025 RMK A01 T00971016  RH  045%=      5-min Rain = 0
KFL1 122037Z 21002KT 09/M01 A3025 RMK A01 T00941014  RH  047%=      5-min Rain = 0
KFL1 122038Z 23002KT 09/M02 A3025 RMK A01 T00941016  RH  046%=      5-min Rain = 0
KFL1 122039Z 24004KT 09/M02 A3025 RMK A01 T00931017  RH  046%=      5-min Rain = 0
KFL1 122040Z 25006KT 09/M02 A3025 RMK A01 T00921015  RH  047%=      5-min Rain = 0
KFL1 122041Z 23003KT 09/M02 A3025 RMK A01 T00901015  RH  048%=      5-min Rain = 0
KFL1 122042Z 23004KT 09/M02 A3025 RMK A01 T00931015  RH  047%=      5-min Rain = 0
KFL1 122043Z 21004KT 09/M02 A3025 RMK A01 T00931015  RH  047%=      5-min Rain = 0
KFL1 122044Z 23005KT 09/M02 A3025 RMK A01 T00911017  RH  047%=      5-min Rain = 0
KFL1 122045Z 23004KT 09/M02 A3025 RMK A01 T00871019  RH  047%=      5-min Rain = 0
KFL1 122046Z 23004KT 09/M02 A3025 RMK A01 T00871018  RH  048%=      5-min Rain = 0
KFL1 122047Z 22003KT 08/M02 A3025 RMK A01 T00841019  RH  048%=      5-min Rain = 0
KFL1 122048Z 24002KT 08/M02 A3025 RMK A01 T00841018  RH  049%=      5-min Rain = 0
KFL1 122049Z 26002KT 09/M02 A3025 RMK A01 T00851016  RH  049%=      5-min Rain = 0
KFL1 122050Z 32002KT 08/M02 A3025 RMK A01 T00841016  RH  049%=      5-min Rain = 0
KFL1 122051Z 35002KT 09/M02 A3025 RMK A01 T00861015  RH  049%=      5-min Rain = 0
KFL1 122052Z 19003KT 09/M01 A3024 RMK A01 T00871014  RH  049%=      5-min Rain = 0
KFL1 122053Z 20005KT 09/M01 A3024 RMK A01 T00921012  RH  048%=      5-min Rain = 0
KFL1 122054Z 18006KT 10/M01 A3024 RMK A01 T00951011  RH  047%=      5-min Rain = 0
KFL1 122055Z 20007KT 10/M01 A3024 RMK A01 T00991009  RH  047%=      5-min Rain = 0
KFL1 122056Z 21007KT 10/M01 A3024 RMK A01 T01021010  RH  046%=      5-min Rain = 0
KFL1 122057Z 22005KT 10/M01 A3024 RMK A01 T01031011  RH  045%=      5-min Rain = 0
KFL1 122058Z 21004KT 10/M01 A3024 RMK A01 T01021012  RH  045%=      5-min Rain = 0
KFL1 122059Z 20004KT 10/M01 A3024 RMK A01 T01011014  RH  045%=      5-min Rain = 0
KFL1 122100Z 20004KT 10/M02 A3024 RMK A01 T01001015  RH  044%=      5-min Rain = 0
KFL1 122101Z 19001KT 10/M02 A3024 RMK A01 T00961018  RH  045%=      5-min Rain = 0
KFL1 122102Z 26002KT 09/M02 A3024 RMK A01 T00931019  RH  045%=      5-min Rain = 0
KFL1 122103Z 30001KT 09/M02 A3024 RMK A01 T00901019  RH  046%=      5-min Rain = 0
KFL1 122104Z 27000KT 09/M02 A3024 RMK A01 T00901017  RH  047%=      5-min Rain = 0
KFL1 122105Z 28002KT 09/M02 A3024 RMK A01 T00901016  RH  047%=      5-min Rain = 0
KFL1 122106Z 26003KT 09/M01 A3024 RMK A01 T00901014  RH  048%=      5-min Rain = 0
KFL1 122107Z 25003KT 09/M01 A3024 RMK A01 T00931012  RH  048%=      5-min Rain = 0
KFL1 122108Z 25004KT 10/M01 A3024 RMK A01 T00971008  RH  048%=      5-min Rain = 0
KFL1 122109Z 18005KT 10/M01 A3024 RMK A01 T01011009  RH  047%=      5-min Rain = 0
KFL1 122110Z 19007KT 10/M01 A3024 RMK A01 T01031012  RH  045%=      5-min Rain = 0
KFL1 122111Z 17006KT 10/M02 A3024 RMK A01 T01001015  RH  044%=      5-min Rain = 0
KFL1 122112Z 17009KT 10/M01 A3024 RMK A01 T00981014  RH  045%=      5-min Rain = 0
KFL1 122113Z 18008KT 10/M01 A3024 RMK A01 T00991013  RH  046%=      5-min Rain = 0
KFL1 122114Z 16008KT 10/M01 A3024 RMK A01 T01001011  RH  046%=      5-min Rain = 0
KFL1 122115Z 15006KT 10/M02 A3024 RMK A01 T00971016  RH  045%=      5-min Rain = 0
KFL1 122116Z 11005KT 09/M02 A3024 RMK A01 T00921017  RH  046%=      5-min Rain = 0
KFL1 122117Z 11002KT 09/M02 A3024 RMK A01 T00901017  RH  047%=      5-min Rain = 0
KFL1 122118Z 17002KT 09/M02 A3024 RMK A01 T00901015  RH  048%=      5-min Rain = 0
KFL1 122119Z 18003KT 09/M02 A3024 RMK A01 T00911016  RH  047%=      5-min Rain = 0
KFL1 122120Z 16003KT 09/M02 A3024 RMK A01 T00911016  RH  047%=      5-min Rain = 0
KFL1 122121Z 17003KT 10/M01 A3024 RMK A01 T00951011  RH  047%=      5-min Rain = 0
KFL1 122122Z 22006KT 10/M01 A3024 RMK A01 T00971012  RH  047%=      5-min Rain = 0
KFL1 122123Z 22004KT 10/M01 A3024 RMK A01 T00991010  RH  046%=      5-min Rain = 0
KFL1 122124Z 15004KT 10/M01 A3024 RMK A01 T01011011  RH  046%=      5-min Rain = 0
KFL1 122125Z 20006KT 10/M01 A3024 RMK A01 T01011012  RH  045%=      5-min Rain = 0
KFL1 122126Z 21006KT 10/M01 A3024 RMK A01 T01011012  RH  045%=      5-min Rain = 0
KFL1 122127Z 21009KT 10/M01 A3024 RMK A01 T01001014  RH  045%=      5-min Rain = 0
KFL1 122128Z 22007G12KT 10/M02 A3024 RMK A01 T00961016  RH  046%=      5-min Rain = 0
KFL1 122129Z 21008KT 10/M01 A3024 RMK A01 T00971013  RH  046%=      5-min Rain = 0
KFL1 122130Z 22007KT 10/M01 A3024 RMK A01 T00971014  RH  046%=      5-min Rain = 0
KFL1 122131Z 23006KT 10/M02 A3024 RMK A01 T00951017  RH  046%=      5-min Rain = 0
KFL1 122132Z 21006KT 10/M02 A3024 RMK A01 T00951015  RH  046%=      5-min Rain = 0
KFL1 122133Z 23005KT 09/M02 A3024 RMK A01 T00931016  RH  046%=      5-min Rain = 0
KFL1 122134Z 22005KT 09/M02 A3024 RMK A01 T00941015  RH  047%=      5-min Rain = 0
KFL1 122135Z 23004KT 09/M02 A3024 RMK A01 T00901017  RH  047%=      5-min Rain = 0
KFL1 122136Z 19004KT 09/M02 A3024 RMK A01 T00901016  RH  047%=      5-min Rain = 0
KFL1 122137Z 19003KT 09/M01 A3024 RMK A01 T00941014  RH  047%=      5-min Rain = 0
KFL1 122138Z 17002KT 10/M01 A3024 RMK A01 T00961013  RH  047%=      5-min Rain = 0
KFL1 122139Z 19004KT 10/M01 A3024 RMK A01 T00961013  RH  047%=      5-min Rain = 0
KFL1 122140Z 19005KT 10/M02 A3024 RMK A01 T00951015  RH  046%=      5-min Rain = 0
KFL1 122141Z 18007KT 09/M02 A3024 RMK A01 T00941015  RH  046%=      5-min Rain = 0
KFL1 122142Z 17009KT 10/M02 A3024 RMK A01 T00961015  RH  046%=      5-min Rain = 0
KFL1 122143Z 17007KT 10/M02 A3024 RMK A01 T00951015  RH  046%=      5-min Rain = 0
KFL1 122144Z 18006KT 09/M02 A3023 RMK A01 T00941015  RH  046%=      5-min Rain = 0
KFL1 122145Z 18008KT 10/M01 A3023 RMK A01 T00961012  RH  047%=      5-min Rain = 0
KFL1 122146Z 21007KT 10/M01 A3024 RMK A01 T00971014  RH  046%=      5-min Rain = 0
KFL1 122147Z 20005KT 10/M01 A3023 RMK A01 T00991012  RH  046%=      5-min Rain = 0
KFL1 122148Z 22006KT 10/M01 A3023 RMK A01 T01021009  RH  046%=      5-min Rain = 0
KFL1 122149Z 20006KT 10/M01 A3023 RMK A01 T01041012  RH  044%=      5-min Rain = 0
KFL1 122150Z 20007KT 11/M01 A3023 RMK A01 T01061009  RH  045%=      5-min Rain = 0
KFL1 122151Z 19005KT 11/M01 A3023 RMK A01 T01111007  RH  044%=      5-min Rain = 0
KFL1 122152Z 21008KT 11/M01 A3024 RMK A01 T01131008  RH  043%=      5-min Rain = 0
KFL1 122153Z 20007KT 11/M01 A3023 RMK A01 T01141009  RH  043%=      5-min Rain = 0
KFL1 122154Z 18009KT 11/M01 A3024 RMK A01 T01121012  RH  042%=      5-min Rain = 0
KFL1 122155Z 20007KT 11/M02 A3024 RMK A01 T01071015  RH  043%=      5-min Rain = 0
KFL1 122156Z 20008KT 11/M01 A3024 RMK A01 T01071012  RH  044%=      5-min Rain = 0
KFL1 122157Z 23007KT 11/M01 A3024 RMK A01 T01061012  RH  044%=      5-min Rain = 0
KFL1 122158Z 23006KT 11/M01 A3024 RMK A01 T01051013  RH  044%=      5-min Rain = 0
KFL1 122159Z 23008KT 11/M01 A3023 RMK A01 T01061010  RH  044%=      5-min Rain = 0
KFL1 122200Z 22006KT 10/M02 A3023 RMK A01 T01021017  RH  044%=      5-min Rain = 0
KFL1 122201Z 22005KT 10/M02 A3023 RMK A01 T00981018  RH  044%=      5-min Rain = 0
KFL1 122202Z 22005KT 10/M01 A3023 RMK A01 T00981014  RH  045%=      5-min Rain = 0
KFL1 122203Z 23005KT 10/M02 A3023 RMK A01 T00951016  RH  046%=      5-min Rain = 0
KFL1 122204Z 23007KT 10/M02 A3023 RMK A01 T00961015  RH  046%=      5-min Rain = 0
KFL1 122205Z 25008KT 10/M01 A3023 RMK A01 T00981012  RH  046%=      5-min Rain = 0
KFL1 122206Z 23008KT 10/M01 A3023 RMK A01 T01021011  RH  045%=      5-min Rain = 0
KFL1 122207Z 23009KT 10/M01 A3023 RMK A01 T00991014  RH  045%=      5-min Rain = 0
KFL1 122208Z 22010KT 10/M01 A3023 RMK A01 T01001012  RH  046%=      5-min Rain = 0
KFL1 122209Z 22009KT 10/M01 A3023 RMK A01 T01021011  RH  045%=      5-min Rain = 0
KFL1 122210Z 21009KT 10/M01 A3023 RMK A01 T01021013  RH  045%=      5-min Rain = 0
KFL1 122211Z 21008KT 10/M01 A3023 RMK A01 T01011013  RH  045%=      5-min Rain = 0
KFL1 122212Z 22006G12KT 10/M01 A3023 RMK A01 T01021013  RH  045%=      5-min Rain = 0
KFL1 122213Z 23009KT 10/M01 A3023 RMK A01 T01011013  RH  045%=      5-min Rain = 0
KFL1 122214Z 21011KT 10/M01 A3023 RMK A01 T01021012  RH  045%=      5-min Rain = 0
KFL1 122215Z 21010KT 10/M01 A3023 RMK A01 T01001014  RH  045%=      5-min Rain = 0
KFL1 122216Z 19009KT 10/M01 A3023 RMK A01 T00991013  RH  046%=      5-min Rain = 0
KFL1 122217Z 23011KT 10/M01 A3023 RMK A01 T00991012  RH  046%=      5-min Rain = 0
KFL1 122218Z 23013KT 10/M01 A3023 RMK A01 T01011011  RH  046%=      5-min Rain = 0
KFL1 122219Z 23008KT 10/M01 A3023 RMK A01 T01011012  RH  045%=      5-min Rain = 0
KFL1 122220Z 21005KT 10/M01 A3024 RMK A01 T00991013  RH  046%=      5-min Rain = 0
KFL1 122221Z 18007KT 10/M01 A3023 RMK A01 T01001011  RH  046%=      5-min Rain = 0
KFL1 122222Z 20008KT 10/M01 A3023 RMK A01 T00991013  RH  046%=      5-min Rain = 0
KFL1 122223Z 20009KT 10/M01 A3023 RMK A01 T01011011  RH  046%=      5-min Rain = 0
KFL1 122224Z 21009KT 10/M01 A3023 RMK A01 T01011012  RH  045%=      5-min Rain = 0
KFL1 122225Z 19008KT 10/M01 A3023 RMK A01 T00981014  RH  045%=      5-min Rain = 0
KFL1 122226Z 21008KT 10/M02 A3023 RMK A01 T00971015  RH  045%=      5-min Rain = 0
KFL1 122227Z 20008KT 10/M01 A3023 RMK A01 T00961014  RH  046%=      5-min Rain = 0
KFL1 122228Z 21010KT 10/M01 A3023 RMK A01 T00991010  RH  047%=      5-min Rain = 0
KFL1 122229Z 20009KT 10/M01 A3023 RMK A01 T01011011  RH  046%=      5-min Rain = 0
KFL1 122230Z 22012KT 10/M01 A3023 RMK A01 T01021012  RH  045%=      5-min Rain = 0
KFL1 122231Z 22011KT 10/M01 A3023 RMK A01 T01011014  RH  045%=      5-min Rain = 0
KFL1 122232Z 23007KT 10/M01 A3023 RMK A01 T00991014  RH  045%=      5-min Rain = 0
KFL1 122233Z 20008G13KT 10/M01 A3023 RMK A01 T00971014  RH  046%=      5-min Rain = 0
KFL1 122234Z 22009KT 10/M01 A3023 RMK A01 T00971013  RH  046%=      5-min Rain = 0
KFL1 122235Z 23008KT 10/M01 A3023 RMK A01 T00971014  RH  046%=      5-min Rain = 0
KFL1 122236Z 24006KT 10/M01 A3023 RMK A01 T00981013  RH  046%=      5-min Rain = 0
KFL1 122237Z 23008G13KT 10/M01 A3023 RMK A01 T00981012  RH  046%=      5-min Rain = 0
KFL1 122238Z 23010KT 10/M01 A3023 RMK A01 T01001011  RH  046%=      5-min Rain = 0
KFL1 122239Z 24009KT 10/M01 A3023 RMK A01 T00991012  RH  046%=      5-min Rain = 0
KFL1 122240Z 24007KT 10/M01 A3023 RMK A01 T01001011  RH  046%=      5-min Rain = 0
KFL1 122241Z 24004KT 10/M01 A3023 RMK A01 T00991014  RH  045%=      5-min Rain = 0
KFL1 122242Z 22007KT 10/M01 A3023 RMK A01 T00981013  RH  046%=      5-min Rain = 0
KFL1 122243Z 23010KT 10/M01 A3023 RMK A01 T01001011  RH  046%=      5-min Rain = 0
KFL1 122244Z 23010KT 10/M01 A3023 RMK A01 T01031010  RH  046%=      5-min Rain = 0
KFL1 122245Z 23011KT 10/M01 A3023 RMK A01 T01031011  RH  045%=      5-min Rain = 0
KFL1 122246Z 23010KT 10/M02 A3023 RMK A01 T01001015  RH  045%=      5-min Rain = 0
KFL1 122247Z 23009KT 10/M01 A3023 RMK A01 T01001013  RH  045%=      5-min Rain = 0
KFL1 122248Z 24009KT 10/M01 A3023 RMK A01 T00991014  RH  045%=      5-min Rain = 0
KFL1 122249Z 24007KT 10/M02 A3023 RMK A01 T00961015  RH  046%=      5-min Rain = 0
KFL1 122250Z 21008KT 10/M01 A3023 RMK A01 T00961014  RH  046%=      5-min Rain = 0
KFL1 122251Z 18007KT 10/M01 A3023 RMK A01 T00961014  RH  046%=      5-min Rain = 0
KFL1 122252Z 19007KT 10/M01 A3023 RMK A01 T00981013  RH  046%=      5-min Rain = 0
KFL1 122253Z 21008KT 10/M01 A3023 RMK A01 T00981013  RH  046%=      5-min Rain = 0
KFL1 122254Z 23010KT 10/M01 A3023 RMK A01 T00991012  RH  046%=      5-min Rain = 0
KFL1 122255Z 24010KT 10/M02 A3023 RMK A01 T00981015  RH  045%=      5-min Rain = 0
KFL1 122256Z 23008KT 10/M02 A3023 RMK A01 T00961016  RH  046%=      5-min Rain = 0
KFL1 122257Z 22005KT 09/M02 A3023 RMK A01 T00931016  RH  046%=      5-min Rain = 0
KFL1 122258Z 20007KT 09/M02 A3023 RMK A01 T00921016  RH  047%=      5-min Rain = 0
KFL1 122259Z 22007KT 09/M02 A3023 RMK A01 T00931015  RH  047%=      5-min Rain = 0
KFL1 122300Z 22008KT 09/M01 A3023 RMK A01 T00941013  RH  047%=      5-min Rain = 0
KFL1 122301Z 22007KT 10/M01 A3023 RMK A01 T00951014  RH  047%=      5-min Rain = 0
KFL1 122302Z 22006KT 09/M02 A3023 RMK A01 T00941016  RH  046%=      5-min Rain = 0
KFL1 122303Z 22007KT 09/M01 A3023 RMK A01 T00941014  RH  047%=      5-min Rain = 0
KFL1 122304Z 22010KT 09/M01 A3023 RMK A01 T00941014  RH  047%=      5-min Rain = 0
KFL1 122305Z 23011KT 09/M02 A3023 RMK A01 T00931015  RH  047%=      5-min Rain = 0
KFL1 122306Z 23011KT 09/M01 A3023 RMK A01 T00921014  RH  047%=      5-min Rain = 0
KFL1 122307Z 24005KT 09/M02 A3023 RMK A01 T00901015  RH  048%=      5-min Rain = 0
KFL1 122308Z 22004KT 09/M01 A3023 RMK A01 T00931011  RH  048%=      5-min Rain = 0
KFL1 122309Z 21004KT 10/M01 A3023 RMK A01 T00961009  RH  048%=      5-min Rain = 0
KFL1 122310Z 19005KT 10/M01 A3023 RMK A01 T00981013  RH  046%=      5-min Rain = 0
KFL1 122311Z 17008KT 10/M01 A3023 RMK A01 T00981013  RH  046%=      5-min Rain = 0
KFL1 122312Z 20006G11KT 10/M01 A3023 RMK A01 T00991013  RH  046%=      5-min Rain = 0
KFL1 122313Z 22007KT 10/M01 A3023 RMK A01 T01001012  RH  046%=      5-min Rain = 0
KFL1 122314Z 22007G12KT 10/M01 A3023 RMK A01 T01011012  RH  045%=      5-min Rain = 0
KFL1 122315Z 22008KT 10/M01 A3023 RMK A01 T01021012  RH  045%=      5-min Rain = 0
KFL1 122316Z 23009KT 10/M01 A3023 RMK A01 T01001014  RH  045%=      5-min Rain = 0
KFL1 122317Z 22007KT 10/M02 A3023 RMK A01 T00961015  RH  046%=      5-min Rain = 0
KFL1 122318Z 22010KT 10/M01 A3023 RMK A01 T00951014  RH  046%=      5-min Rain = 0
KFL1 122319Z 21007KT 09/M02 A3023 RMK A01 T00941015  RH  047%=      5-min Rain = 0
KFL1 122320Z 21007G12KT 09/M02 A3022 RMK A01 T00931015  RH  047%=      5-min Rain = 0
KFL1 122321Z 22009G15KT 09/M01 A3023 RMK A01 T00911014  RH  048%=      5-min Rain = 0
KFL1 122322Z 24009KT 09/M01 A3023 RMK A01 T00911012  RH  049%=      5-min Rain = 0
KFL1 122323Z 24009KT 09/M01 A3022 RMK A01 T00911012  RH  049%=      5-min Rain = 0
KFL1 122324Z 23007KT 09/M01 A3022 RMK A01 T00901013  RH  048%=      5-min Rain = 0
KFL1 122325Z 22006KT 09/M02 A3022 RMK A01 T00891015  RH  048%=      5-min Rain = 0
KFL1 122326Z 22006KT 09/M02 A3022 RMK A01 T00881015  RH  048%=      5-min Rain = 0
KFL1 122327Z 23009KT 09/M01 A3022 RMK A01 T00881013  RH  049%=      5-min Rain = 0
KFL1 122328Z 21009KT 09/M01 A3022 RMK A01 T00871013  RH  049%=      5-min Rain = 0
KFL1 122329Z 22010G15KT 09/M01 A3022 RMK A01 T00861013  RH  050%=      5-min Rain = 0
KFL1 122330Z 22010KT 09/M01 A3022 RMK A01 T00861014  RH  050%=      5-min Rain = 0
KFL1 122331Z 21009KT 09/M01 A3022 RMK A01 T00861013  RH  050%=      5-min Rain = 0
KFL1 122332Z 21008KT 09/M01 A3022 RMK A01 T00851013  RH  050%=      5-min Rain = 0
KFL1 122333Z 23008KT 09/M01 A3022 RMK A01 T00851013  RH  050%=      5-min Rain = 0
KFL1 122334Z 22007KT 08/M01 A3022 RMK A01 T00841013  RH  051%=      5-min Rain = 0
KFL1 122335Z 19008KT 08/M01 A3022 RMK A01 T00831013  RH  051%=      5-min Rain = 0
KFL1 122336Z 20009KT 09/M01 A3022 RMK A01 T00851010  RH  052%=      5-min Rain = 0
KFL1 122337Z 19009KT 08/M01 A3022 RMK A01 T00831009  RH  052%=      5-min Rain = 0
KFL1 122338Z 19008KT 08/M01 A3022 RMK A01 T00841008  RH  052%=      5-min Rain = 0
KFL1 122339Z 19007KT 09/M01 A3022 RMK A01 T00851007  RH  052%=      5-min Rain = 0
KFL1 122340Z 20007KT 09/M01 A3022 RMK A01 T00861007  RH  052%=      5-min Rain = 0
KFL1 122341Z 21007KT 09/M01 A3022 RMK A01 T00861007  RH  052%=      5-min Rain = 0
KFL1 122342Z 21008KT 09/M01 A3022 RMK A01 T00881006  RH  052%=      5-min Rain = 0
KFL1 122343Z 21008KT 09/M01 A3022 RMK A01 T00881008  RH  051%=      5-min Rain = 0
KFL1 122344Z 22006KT 09/M01 A3022 RMK A01 T00911006  RH  051%=      5-min Rain = 0
KFL1 122345Z 21007KT 09/M01 A3022 RMK A01 T00911006  RH  050%=      5-min Rain = 0
KFL1 122346Z 21008KT 09/M01 A3022 RMK A01 T00911007  RH  050%=      5-min Rain = 0
KFL1 122347Z 22005KT 09/M01 A3022 RMK A01 T00931007  RH  050%=      5-min Rain = 0
KFL1 122348Z 24008KT 09/M01 A3022 RMK A01 T00931008  RH  049%=      5-min Rain = 0
KFL1 122349Z 24009KT 09/M01 A3022 RMK A01 T00921009  RH  049%=      5-min Rain = 0
KFL1 122350Z 24007KT 09/M01 A3022 RMK A01 T00901010  RH  049%=      5-min Rain = 0
KFL1 122351Z 22010KT 09/M01 A3022 RMK A01 T00891010  RH  050%=      5-min Rain = 0
KFL1 122352Z 21010KT 09/M01 A3022 RMK A01 T00871010  RH  050%=      5-min Rain = 0
KFL1 122353Z 22014KT 09/M01 A3022 RMK A01 T00851010  RH  051%=      5-min Rain = 0
KFL1 122354Z 23010KT 08/M01 A3022 RMK A01 T00831010  RH  052%=      5-min Rain = 0
KFL1 122355Z 22008KT 08/M01 A3022 RMK A01 T00801009  RH  053%=      5-min Rain = 0
KFL1 122356Z 20008KT 08/M01 A3022 RMK A01 T00801009  RH  054%=      5-min Rain = 0
KFL1 122357Z 20008KT 08/M01 A3022 RMK A01 T00791008  RH  054%=      5-min Rain = 0
KFL1 122358Z 21010KT 08/M01 A3022 RMK A01 T00771009  RH  054%=      5-min Rain = 0
KFL1 122359Z 21011KT 08/M01 A3022 RMK A01 T00771009  RH  055%=      5-min Rain = 0
KFL1 130000Z 21009KT 08/M01 A3022 RMK A01 T00761009  RH  055%=      5-min Rain = 0
KFL1 130001Z 20009KT 08/M01 A3022 RMK A01 T00751009  RH  055%=      5-min Rain = 0
KFL1 130002Z 21011KT 08/M01 A3022 RMK A01 T00751008  RH  056%=      5-min Rain = 0
KFL1 130003Z 22007KT 07/M01 A3022 RMK A01 T00731009  RH  056%=      5-min Rain = 0
KFL1 130004Z 22009KT 07/M01 A3022 RMK A01 T00741007  RH  057%=      5-min Rain = 0
KFL1 130005Z 21009KT 07/M01 A3022 RMK A01 T00731008  RH  056%=      5-min Rain = 0
KFL1 130006Z 21009KT 07/M01 A3022 RMK A01 T00741007  RH  056%=      5-min Rain = 0
KFL1 130007Z 21008KT 08/M01 A3022 RMK A01 T00751006  RH  056%=      5-min Rain = 0
KFL1 130008Z 22009KT 07/M01 A3022 RMK A01 T00741007  RH  056%=      5-min Rain = 0
KFL1 130009Z 22010KT 07/M01 A3022 RMK A01 T00741006  RH  057%=      5-min Rain = 0
KFL1 130010Z 22010KT 07/M01 A3022 RMK A01 T00731007  RH  057%=      5-min Rain = 0
KFL1 130011Z 22008KT 07/M01 A3022 RMK A01 T00731007  RH  057%=      5-min Rain = 0
KFL1 130012Z 22008KT 07/M01 A3022 RMK A01 T00721007  RH  057%=      5-min Rain = 0
KFL1 130013Z 22007G12KT 07/M01 A3022 RMK A01 T00731005  RH  057%=      5-min Rain = 0
KFL1 130014Z 22007KT 07/M01 A3022 RMK A01 T00731006  RH  057%=      5-min Rain = 0
KFL1 130015Z 22006KT 07/M01 A3022 RMK A01 T00711007  RH  057%=      5-min Rain = 0
KFL1 130016Z 22007KT 07/M01 A3022 RMK A01 T00711007  RH  057%=      5-min Rain = 0
KFL1 130017Z 22009KT 07/M01 A3022 RMK A01 T00721006  RH  058%=      5-min Rain = 0
KFL1 130018Z 22009KT 07/M01 A3022 RMK A01 T00691008  RH  058%=      5-min Rain = 0
KFL1 130019Z 22007KT 07/M01 A3022 RMK A01 T00691007  RH  058%=      5-min Rain = 0
KFL1 130020Z 23009KT 07/M01 A3022 RMK A01 T00681008  RH  058%=      5-min Rain = 0
KFL1 130021Z 23009KT 07/M01 A3022 RMK A01 T00681007  RH  059%=      5-min Rain = 0
KFL1 130022Z 23010KT 07/M01 A3022 RMK A01 T00681007  RH  059%=      5-min Rain = 0
KFL1 130023Z 22008KT 07/M01 A3022 RMK A01 T00671007  RH  059%=      5-min Rain = 0
KFL1 130024Z 22008KT 07/M01 A3022 RMK A01 T00671007  RH  059%=      5-min Rain = 0
KFL1 130025Z 22008KT 07/M01 A3022 RMK A01 T00671007  RH  059%=      5-min Rain = 0
KFL1 130026Z 23009KT 07/M01 A3022 RMK A01 T00671006  RH  059%=      5-min Rain = 0
KFL1 130027Z 23008KT 07/M01 A3022 RMK A01 T00661008  RH  059%=      5-min Rain = 0
KFL1 130028Z 22008KT 07/M01 A3022 RMK A01 T00661007  RH  060%=      5-min Rain = 0
KFL1 130029Z 23008KT 07/M01 A3022 RMK A01 T00651007  RH  060%=      5-min Rain = 0
KFL1 130030Z 22007KT 07/M01 A3022 RMK A01 T00651008  RH  060%=      5-min Rain = 0
KFL1 130031Z 23007KT 07/M01 A3022 RMK A01 T00651006  RH  060%=      5-min Rain = 0
KFL1 130032Z 22006KT 07/M01 A3022 RMK A01 T00651007  RH  060%=      5-min Rain = 0
KFL1 130033Z 23009KT 07/M01 A3022 RMK A01 T00661007  RH  060%=      5-min Rain = 0
KFL1 130034Z 22009KT 07/M01 A3022 RMK A01 T00671005  RH  060%=      5-min Rain = 0
KFL1 130035Z 23008KT 07/M01 A3022 RMK A01 T00691005  RH  059%=      5-min Rain = 0
KFL1 130036Z 22007KT 07/M01 A3022 RMK A01 T00691005  RH  059%=      5-min Rain = 0
KFL1 130037Z 23007KT 07/M01 A3022 RMK A01 T00691005  RH  059%=      5-min Rain = 0
KFL1 130038Z 23007KT 07/M01 A3022 RMK A01 T00691006  RH  059%=      5-min Rain = 0
KFL1 130039Z 23007KT 07/M00 A3022 RMK A01 T00711004  RH  059%=      5-min Rain = 0
KFL1 130040Z 22007KT 07/M01 A3022 RMK A01 T00701005  RH  059%=      5-min Rain = 0
KFL1 130041Z 22007KT 07/M01 A3022 RMK A01 T00701006  RH  058%=      5-min Rain = 0
KFL1 130042Z 22007KT 07/M01 A3022 RMK A01 T00691007  RH  058%=      5-min Rain = 0
KFL1 130043Z 22008KT 07/M01 A3022 RMK A01 T00681007  RH  059%=      5-min Rain = 0
KFL1 130044Z 22009KT 07/M01 A3022 RMK A01 T00671007  RH  059%=      5-min Rain = 0
KFL1 130045Z 22009KT 07/M01 A3022 RMK A01 T00671007  RH  059%=      5-min Rain = 0
KFL1 130046Z 22009KT 07/M01 A3022 RMK A01 T00671007  RH  059%=      5-min Rain = 0
KFL1 130047Z 22009KT 07/M01 A3022 RMK A01 T00671006  RH  060%=      5-min Rain = 0
KFL1 130048Z 22010KT 07/M01 A3022 RMK A01 T00661006  RH  060%=      5-min Rain = 0
KFL1 130049Z 22010KT 07/M00 A3022 RMK A01 T00671004  RH  060%=      5-min Rain = 0
KFL1 130050Z 22009KT 07/M01 A3022 RMK A01 T00651006  RH  060%=      5-min Rain = 0
KFL1 130051Z 21009KT 07/M01 A3022 RMK A01 T00651006  RH  060%=      5-min Rain = 0
KFL1 130052Z 22009KT 07/M01 A3022 RMK A01 T00651006  RH  060%=      5-min Rain = 0
KFL1 130053Z 21009KT 07/M01 A3022 RMK A01 T00651006  RH  061%=      5-min Rain = 0
KFL1 130054Z 22006KT 06/M01 A3022 RMK A01 T00641006  RH  061%=      5-min Rain = 0
KFL1 130055Z 22007KT 06/M01 A3022 RMK A01 T00641007  RH  061%=      5-min Rain = 0
KFL1 130056Z 22006KT 07/M01 A3022 RMK A01 T00651005  RH  061%=      5-min Rain = 0
KFL1 130057Z 21006KT 06/M01 A3022 RMK A01 T00631007  RH  061%=      5-min Rain = 0
KFL1 130058Z 22009KT 06/M01 A3022 RMK A01 T00621007  RH  061%=      5-min Rain = 0
KFL1 130059Z 22008KT 06/M01 A3022 RMK A01 T00621007  RH  061%=      5-min Rain = 0
KFL1 130100Z 22007KT 06/M01 A3022 RMK A01 T00611007  RH  062%=      5-min Rain = 0
KFL1 130101Z 21008KT 06/M01 A3022 RMK A01 T00601008  RH  062%=      5-min Rain = 0
KFL1 130102Z 22007KT 06/M01 A3022 RMK A01 T00601007  RH  062%=      5-min Rain = 0
KFL1 130103Z 22007KT 06/M01 A3022 RMK A01 T00591007  RH  062%=      5-min Rain = 0
KFL1 130104Z 21006KT 06/M01 A3022 RMK A01 T00591007  RH  062%=      5-min Rain = 0
KFL1 130105Z 22006KT 06/M01 A3022 RMK A01 T00601006  RH  063%=      5-min Rain = 0
KFL1 130106Z 22006KT 06/M01 A3022 RMK A01 T00581008  RH  063%=      5-min Rain = 0
KFL1 130107Z 22006KT 06/M01 A3022 RMK A01 T00571008  RH  063%=      5-min Rain = 0
KFL1 130108Z 22005KT 06/M01 A3022 RMK A01 T00571008  RH  063%=      5-min Rain = 0
KFL1 130109Z 22005KT 06/M01 A3023 RMK A01 T00561008  RH  063%=      5-min Rain = 0
KFL1 130110Z 22006KT 06/M01 A3023 RMK A01 T00551009  RH  063%=      5-min Rain = 0
KFL1 130111Z 22005KT 05/M01 A3023 RMK A01 T00541009  RH  064%=      5-min Rain = 0
KFL1 130112Z 22006KT 05/M01 A3023 RMK A01 T00531010  RH  064%=      5-min Rain = 0
KFL1 130113Z 22006KT 05/M01 A3023 RMK A01 T00541008  RH  064%=      5-min Rain = 0
KFL1 130114Z 22005KT 05/M01 A3023 RMK A01 T00541008  RH  064%=      5-min Rain = 0
KFL1 130115Z 22006KT 05/M01 A3023 RMK A01 T00521009  RH  065%=      5-min Rain = 0
KFL1 130116Z 22006KT 05/M01 A3023 RMK A01 T00521009  RH  065%=      5-min Rain = 0
KFL1 130117Z 22005KT 05/M01 A3023 RMK A01 T00531008  RH  065%=      5-min Rain = 0
KFL1 130118Z 22006KT 05/M01 A3023 RMK A01 T00521009  RH  065%=      5-min Rain = 0
KFL1 130119Z 22006KT 05/M01 A3023 RMK A01 T00501011  RH  065%=      5-min Rain = 0
KFL1 130120Z 23006KT 05/M01 A3023 RMK A01 T00491010  RH  066%=      5-min Rain = 0
KFL1 130121Z 22006KT 05/M01 A3023 RMK A01 T00481010  RH  066%=      5-min Rain = 0
KFL1 130122Z 22007KT 05/M01 A3023 RMK A01 T00481010  RH  066%=      5-min Rain = 0
KFL1 130123Z 23006KT 05/M01 A3023 RMK A01 T00461010  RH  067%=      5-min Rain = 0
KFL1 130124Z 23006KT 05/M01 A3023 RMK A01 T00471009  RH  067%=      5-min Rain = 0
KFL1 130125Z 22005KT 05/M01 A3023 RMK A01 T00461009  RH  067%=      5-min Rain = 0
KFL1 130126Z 22006KT 05/M01 A3023 RMK A01 T00451011  RH  067%=      5-min Rain = 0
KFL1 130127Z 22005KT 05/M01 A3023 RMK A01 T00461009  RH  067%=      5-min Rain = 0
KFL1 130128Z 22006KT 04/M01 A3022 RMK A01 T00431012  RH  067%=      5-min Rain = 0
KFL1 130129Z 22005KT 04/M01 A3022 RMK A01 T00421013  RH  067%=      5-min Rain = 0
KFL1 130130Z 22006KT 04/M01 A3022 RMK A01 T00421012  RH  068%=      5-min Rain = 0
KFL1 130131Z 22005KT 04/M01 A3022 RMK A01 T00411012  RH  068%=      5-min Rain = 0
KFL1 130132Z 23005KT 04/M01 A3022 RMK A01 T00401013  RH  068%=      5-min Rain = 0
KFL1 130133Z 23005KT 04/M01 A3022 RMK A01 T00401012  RH  069%=      5-min Rain = 0
KFL1 130134Z 23004KT 04/M01 A3022 RMK A01 T00381014  RH  069%=      5-min Rain = 0
KFL1 130135Z 23005KT 04/M01 A3022 RMK A01 T00381013  RH  069%=      5-min Rain = 0
KFL1 130136Z 23005KT 04/M01 A3022 RMK A01 T00381012  RH  070%=      5-min Rain = 0
KFL1 130137Z 23005KT 04/M01 A3022 RMK A01 T00381011  RH  070%=      5-min Rain = 0
KFL1 130138Z 23005KT 04/M01 A3022 RMK A01 T00371012  RH  070%=      5-min Rain = 0
KFL1 130139Z 22005KT 04/M01 A3022 RMK A01 T00371011  RH  070%=      5-min Rain = 0
KFL1 130140Z 23005KT 04/M01 A3023 RMK A01 T00361012  RH  071%=      5-min Rain = 0
KFL1 130141Z 22004KT 04/M01 A3023 RMK A01 T00361013  RH  070%=      5-min Rain = 0
KFL1 130142Z 23005KT 03/M02 A3023 RMK A01 T00341016  RH  070%=      5-min Rain = 0
KFL1 130143Z 22004KT 03/M02 A3023 RMK A01 T00321017  RH  070%=      5-min Rain = 0
KFL1 130144Z 22004KT 03/M02 A3022 RMK A01 T00301019  RH  071%=      5-min Rain = 0
KFL1 130145Z 22005KT 03/M02 A3022 RMK A01 T00291016  RH  072%=      5-min Rain = 0
KFL1 130146Z 22005KT 03/M02 A3022 RMK A01 T00291015  RH  073%=      5-min Rain = 0
KFL1 130147Z 22006KT 03/M02 A3022 RMK A01 T00301015  RH  072%=      5-min Rain = 0
KFL1 130148Z 21006KT 03/M02 A3022 RMK A01 T00291016  RH  072%=      5-min Rain = 0
KFL1 130149Z 22005KT 03/M02 A3022 RMK A01 T00281017  RH  072%=      5-min Rain = 0
KFL1 130150Z 21005KT 02/M02 A3022 RMK A01 T00241020  RH  072%=      5-min Rain = 0
KFL1 130151Z 20005KT 02/M02 A3022 RMK A01 T00241018  RH  074%=      5-min Rain = 0
KFL1 130152Z 21005KT 02/M02 A3022 RMK A01 T00241017  RH  075%=      5-min Rain = 0
KFL1 130153Z 21004KT 02/M02 A3022 RMK A01 T00221019  RH  074%=      5-min Rain = 0
KFL1 130154Z 22004KT 02/M02 A3022 RMK A01 T00211020  RH  075%=      5-min Rain = 0
KFL1 130155Z 22003KT 02/M02 A3022 RMK A01 T00201019  RH  075%=      5-min Rain = 0
KFL1 130156Z 23002KT 02/M02 A3023 RMK A01 T00181021  RH  075%=      5-min Rain = 0
KFL1 130157Z 24002KT 02/M02 A3023 RMK A01 T00181019  RH  077%=      5-min Rain = 0
KFL1 130158Z 25002KT 02/M02 A3023 RMK A01 T00171017  RH  078%=      5-min Rain = 0
KFL1 130159Z 25002KT 02/M02 A3023 RMK A01 T00181016  RH  078%=      5-min Rain = 0
KFL1 130200Z 25003KT 02/M02 A3023 RMK A01 T00181019  RH  077%=      5-min Rain = 0
KFL1 130201Z 25003KT 02/M02 A3023 RMK A01 T00181020  RH  076%=      5-min Rain = 0
KFL1 130202Z 24004KT 02/M02 A3023 RMK A01 T00171019  RH  077%=      5-min Rain = 0
KFL1 130203Z 24004KT 02/M02 A3023 RMK A01 T00181016  RH  078%=      5-min Rain = 0
KFL1 130204Z 23004KT 02/M02 A3023 RMK A01 T00191015  RH  078%=      5-min Rain = 0
KFL1 130205Z 23004KT 02/M01 A3023 RMK A01 T00211014  RH  078%=      5-min Rain = 0
KFL1 130206Z 23005KT 02/M01 A3023 RMK A01 T00221013  RH  078%=      5-min Rain = 0
KFL1 130207Z 23005KT 02/M01 A3023 RMK A01 T00231012  RH  077%=      5-min Rain = 0
KFL1 130208Z 23004KT 02/M01 A3023 RMK A01 T00241013  RH  076%=      5-min Rain = 0
KFL1 130209Z 23004KT 02/M02 A3023 RMK A01 T00241016  RH  075%=      5-min Rain = 0
KFL1 130210Z 23005KT 02/M02 A3023 RMK A01 T00221017  RH  076%=      5-min Rain = 0
KFL1 130211Z 23004KT 02/M02 A3023 RMK A01 T00211017  RH  076%=      5-min Rain = 0
KFL1 130212Z 22004KT 02/M02 A3023 RMK A01 T00211018  RH  076%=      5-min Rain = 0
KFL1 130213Z 22003KT 02/M02 A3023 RMK A01 T00201016  RH  077%=      5-min Rain = 0
KFL1 130214Z 23003KT 02/M01 A3023 RMK A01 T00201014  RH  078%=      5-min Rain = 0
KFL1 130215Z 22003KT 02/M01 A3023 RMK A01 T00201014  RH  078%=      5-min Rain = 0
KFL1 130216Z 22003KT 02/M02 A3023 RMK A01 T00201015  RH  078%=      5-min Rain = 0
KFL1 130217Z 22003KT 02/M01 A3023 RMK A01 T00211014  RH  078%=      5-min Rain = 0
KFL1 130218Z 23003KT 02/M01 A3023 RMK A01 T00201014  RH  078%=      5-min Rain = 0
KFL1 130219Z 22002KT 02/M01 A3023 RMK A01 T00221013  RH  078%=      5-min Rain = 0
KFL1 130220Z 22002KT 02/M02 A3023 RMK A01 T00211015  RH  077%=      5-min Rain = 0
KFL1 130221Z 24001KT 02/M02 A3023 RMK A01 T00211015  RH  077%=      5-min Rain = 0
KFL1 130222Z 27001KT 02/M02 A3023 RMK A01 T00211015  RH  077%=      5-min Rain = 0
KFL1 130223Z 29002KT 02/M02 A3023 RMK A01 T00191016  RH  077%=      5-min Rain = 0
KFL1 130224Z 27002KT 02/M02 A3023 RMK A01 T00201016  RH  077%=      5-min Rain = 0
KFL1 130225Z 25002KT 02/M02 A3023 RMK A01 T00191016  RH  078%=      5-min Rain = 0
KFL1 130226Z 27002KT 02/M02 A3023 RMK A01 T00171017  RH  078%=      5-min Rain = 0
KFL1 130227Z 26003KT 02/M02 A3023 RMK A01 T00161017  RH  079%=      5-min Rain = 0
KFL1 130228Z 26003KT 02/M02 A3023 RMK A01 T00151017  RH  079%=      5-min Rain = 0
KFL1 130229Z 25003KT 02/M01 A3023 RMK A01 T00171014  RH  080%=      5-min Rain = 0
KFL1 130230Z 25003KT 02/M01 A3023 RMK A01 T00181013  RH  079%=      5-min Rain = 0
KFL1 130231Z 25003KT 02/M01 A3022 RMK A01 T00191014  RH  078%=      5-min Rain = 0
KFL1 130232Z 25004KT 02/M02 A3022 RMK A01 T00191016  RH  078%=      5-min Rain = 0
KFL1 130233Z 26003KT 02/M02 A3022 RMK A01 T00191015  RH  078%=      5-min Rain = 0
KFL1 130234Z 26003KT 02/M02 A3022 RMK A01 T00191016  RH  078%=      5-min Rain = 0
KFL1 130235Z 26004KT 02/M02 A3022 RMK A01 T00181017  RH  077%=      5-min Rain = 0
KFL1 130236Z 25003KT 02/M02 A3022 RMK A01 T00171018  RH  078%=      5-min Rain = 0
KFL1 130237Z 25003KT 02/M02 A3022 RMK A01 T00181017  RH  078%=      5-min Rain = 0
KFL1 130238Z 25003KT 02/M02 A3022 RMK A01 T00171016  RH  079%=      5-min Rain = 0
KFL1 130239Z 24002KT 02/M02 A3022 RMK A01 T00171015  RH  079%=      5-min Rain = 0
KFL1 130240Z 24003KT 02/M02 A3022 RMK A01 T00161017  RH  079%=      5-min Rain = 0
KFL1 130241Z 24003KT 02/M02 A3022 RMK A01 T00161016  RH  079%=      5-min Rain = 0
KFL1 130242Z 23002KT 02/M02 A3022 RMK A01 T00161016  RH  080%=      5-min Rain = 0
KFL1 130243Z 23002KT 02/M01 A3022 RMK A01 T00171013  RH  081%=      5-min Rain = 0
KFL1 130244Z 22002KT 02/M01 A3022 RMK A01 T00181011  RH  081%=      5-min Rain = 0
KFL1 130245Z 22002KT 02/M01 A3022 RMK A01 T00181011  RH  081%=      5-min Rain = 0
KFL1 130246Z 21002KT 02/M01 A3022 RMK A01 T00181011  RH  081%=      5-min Rain = 0
KFL1 130247Z 22002KT 02/M01 A3022 RMK A01 T00191010  RH  081%=      5-min Rain = 0
KFL1 130248Z 23001KT 02/M01 A3023 RMK A01 T00201010  RH  081%=      5-min Rain = 0
KFL1 130249Z 24001KT 02/M01 A3023 RMK A01 T00201010  RH  081%=      5-min Rain = 0
KFL1 130250Z 28001KT 02/M01 A3023 RMK A01 T00221009  RH  080%=      5-min Rain = 0
KFL1 130251Z 30001KT 02/M01 A3023 RMK A01 T00201014  RH  078%=      5-min Rain = 0
KFL1 130252Z 31002KT 02/M02 A3023 RMK A01 T00201016  RH  077%=      5-min Rain = 0
KFL1 130253Z 30002KT 02/M02 A3023 RMK A01 T00161020  RH  077%=      5-min Rain = 0
KFL1 130254Z 29002KT 01/M03 A3023 RMK A01 T00111025  RH  077%=      5-min Rain = 0
KFL1 130255Z 28002KT 01/M02 A3023 RMK A01 T00081023  RH  080%=      5-min Rain = 0
KFL1 130256Z 26002KT 01/M02 A3023 RMK A01 T00061023  RH  081%=      5-min Rain = 0
KFL1 130257Z 27002KT 01/M02 A3023 RMK A01 T00061020  RH  083%=      5-min Rain = 0
KFL1 130258Z 25003KT 01/M02 A3023 RMK A01 T00071018  RH  083%=      5-min Rain = 0
KFL1 130259Z 26002KT 01/M02 A3023 RMK A01 T00091016  RH  083%=      5-min Rain = 0
KFL1 130300Z 26002KT 01/M02 A3023 RMK A01 T00111015  RH  083%=      5-min Rain = 0
KFL1 130301Z 27002KT 01/M02 A3023 RMK A01 T00111018  RH  081%=      5-min Rain = 0
KFL1 130302Z 25002KT 01/M02 A3023 RMK A01 T00081024  RH  079%=      5-min Rain = 0
KFL1 130303Z 27002KT 01/M02 A3023 RMK A01 T00071022  RH  081%=      5-min Rain = 0
KFL1 130304Z 26003KT 01/M02 A3023 RMK A01 T00071022  RH  081%=      5-min Rain = 0
KFL1 130305Z 26003KT 01/M02 A3023 RMK A01 T00061022  RH  082%=      5-min Rain = 0
KFL1 130306Z 25003KT 00/M02 A3023 RMK A01 T00041022  RH  082%=      5-min Rain = 0
KFL1 130307Z 25003KT 01/M02 A3023 RMK A01 T00051021  RH  083%=      5-min Rain = 0
KFL1 130308Z 26002KT 01/M02 A3023 RMK A01 T00051021  RH  083%=      5-min Rain = 0
KFL1 130309Z 26003KT 01/M02 A3023 RMK A01 T00051021  RH  083%=      5-min Rain = 0
KFL1 130310Z 27002KT 01/M02 A3023 RMK A01 T00051022  RH  083%=      5-min Rain = 0
KFL1 130311Z 26002KT 01/M02 A3023 RMK A01 T00051020  RH  083%=      5-min Rain = 0
KFL1 130312Z 27002KT 01/M02 A3023 RMK A01 T00061019  RH  083%=      5-min Rain = 0
KFL1 130313Z 27002KT 01/M02 A3023 RMK A01 T00051020  RH  083%=      5-min Rain = 0
KFL1 130314Z 27002KT 01/M02 A3023 RMK A01 T00061017  RH  084%=      5-min Rain = 0
KFL1 130315Z 26002KT 01/M01 A3023 RMK A01 T00111013  RH  084%=      5-min Rain = 0
KFL1 130316Z 26001KT 01/M01 A3023 RMK A01 T00111014  RH  083%=      5-min Rain = 0
KFL1 130317Z 26001KT 01/M02 A3023 RMK A01 T00111019  RH  081%=      5-min Rain = 0
KFL1 130318Z 25001KT 01/M02 A3023 RMK A01 T00081023  RH  080%=      5-min Rain = 0
KFL1 130319Z 24000KT 00/M03 A3023 RMK A01 T00041027  RH  079%=      5-min Rain = 0
KFL1 130320Z 05000KT 00/M03 A3023 RMK A01 T00011027  RH  081%=      5-min Rain = 0
KFL1 130321Z 20000KT 00/M02 A3023 RMK A01 T00021022  RH  084%=      5-min Rain = 0
KFL1 130322Z 18001KT 00/02 A3023 RMK A01 T00-00-21  RH  086%=      5-min Rain = 0
KFL1 130323Z 15000KT 00/M02 A3023 RMK A01 T00011018  RH  087%=      5-min Rain = 0
KFL1 130324Z 00000KT 00/M02 A3023 RMK A01 T00041016  RH  087%=      5-min Rain = 0
KFL1 130325Z 00000KT 01/M01 A3023 RMK A01 T00061014  RH  086%=      5-min Rain = 0
KFL1 130326Z 02000KT 01/M02 A3023 RMK A01 T00061016  RH  085%=      5-min Rain = 0
KFL1 130327Z 36000KT 01/M02 A3023 RMK A01 T00061022  RH  081%=      5-min Rain = 0
KFL1 130328Z 32001KT M00/M04 A3023 RMK A01 T10011037  RH  077%=      5-min Rain = 0
KFL1 130329Z 28000KT M01/M05 A3023 RMK A01 T10131049  RH  076%=      5-min Rain = 0
KFL1 130330Z 32001KT M02/M05 A3023 RMK A01 T10201052  RH  079%=      5-min Rain = 0
KFL1 130331Z 33001KT M03/M05 A3023 RMK A01 T10251052  RH  081%=      5-min Rain = 0
KFL1 130332Z 31001KT M03/M05 A3023 RMK A01 T10301053  RH  084%=      5-min Rain = 0
KFL1 130333Z 31001KT M03/M05 A3023 RMK A01 T10321051  RH  087%=      5-min Rain = 0
KFL1 130334Z 31001KT M03/M05 A3023 RMK A01 T10341051  RH  088%=      5-min Rain = 0
KFL1 130335Z 31002KT M04/M05 A3023 RMK A01 T10351051  RH  089%=      5-min Rain = 0
KFL1 130336Z 31002KT M04/M05 A3023 RMK A01 T10371050  RH  090%=      5-min Rain = 0
KFL1 130337Z 30002KT M04/M05 A3023 RMK A01 T10361049  RH  091%=      5-min Rain = 0
KFL1 130338Z 30002KT M04/M05 A3023 RMK A01 T10381050  RH  091%=      5-min Rain = 0
KFL1 130339Z 31002KT M04/M05 A3023 RMK A01 T10371050  RH  091%=      5-min Rain = 0
KFL1 130340Z 31002KT M04/M05 A3023 RMK A01 T10371049  RH  091%=      5-min Rain = 0
KFL1 130341Z 32003KT M04/M05 A3023 RMK A01 T10371048  RH  092%=      5-min Rain = 0
KFL1 130342Z 32003KT M04/M05 A3023 RMK A01 T10371048  RH  092%=      5-min Rain = 0
KFL1 130343Z 32003KT M04/M05 A3023 RMK A01 T10371048  RH  092%=      5-min Rain = 0
KFL1 130344Z 33003KT M04/M05 A3023 RMK A01 T10361045  RH  093%=      5-min Rain = 0
KFL1 130345Z 33003KT M03/M04 A3023 RMK A01 T10311039  RH  095%=      5-min Rain = 0
KFL1 130346Z 34003KT M03/M03 A3023 RMK A01 T10281034  RH  096%=      5-min Rain = 0
KFL1 130347Z 34003KT M02/M03 A3023 RMK A01 T10221028  RH  096%=      5-min Rain = 0
KFL1 130348Z 35003KT M02/M03 A3023 RMK A01 T10201028  RH  094%=      5-min Rain = 0
KFL1 130349Z 35003KT M02/M03 A3022 RMK A01 T10171027  RH  093%=      5-min Rain = 0
KFL1 130350Z 36003KT M02/M03 A3022 RMK A01 T10151027  RH  092%=      5-min Rain = 0
KFL1 130351Z 00004KT M02/M03 A3022 RMK A01 T10161030  RH  091%=      5-min Rain = 0
KFL1 130352Z 00004KT M02/M03 A3022 RMK A01 T10151029  RH  090%=      5-min Rain = 0
KFL1 130353Z 00004KT M01/M03 A3022 RMK A01 T10141029  RH  090%=      5-min Rain = 0
KFL1 130354Z 00004KT M02/M03 A3022 RMK A01 T10151028  RH  090%=      5-min Rain = 0
KFL1 130355Z 00004KT M01/M03 A3022 RMK A01 T10121025  RH  091%=      5-min Rain = 0
KFL1 130356Z 36005KT M01/M03 A3022 RMK A01 T10131029  RH  089%=      5-min Rain = 0
KFL1 130357Z 36005KT M02/M03 A3022 RMK A01 T10151033  RH  087%=      5-min Rain = 0
KFL1 130358Z 36005KT M02/M04 A3022 RMK A01 T10191039  RH  086%=      5-min Rain = 0
KFL1 130359Z 36006KT M02/M04 A3022 RMK A01 T10201036  RH  089%=      5-min Rain = 0
KFL1 130400Z 36006KT M02/M03 A3022 RMK A01 T10191032  RH  090%=      5-min Rain = 0
KFL1 130401Z 35006KT M02/M03 A3022 RMK A01 T10191033  RH  091%=      5-min Rain = 0
KFL1 130402Z 34006KT M02/M04 A3022 RMK A01 T10181035  RH  089%=      5-min Rain = 0
KFL1 130403Z 34006KT M02/M04 A3022 RMK A01 T10231041  RH  087%=      5-min Rain = 0
KFL1 130404Z 34005KT M03/M05 A3022 RMK A01 T10271046  RH  087%=      5-min Rain = 0
KFL1 130405Z 35005KT M03/M05 A3022 RMK A01 T10291045  RH  089%=      5-min Rain = 0
KFL1 130406Z 35005KT M03/M04 A3022 RMK A01 T10291044  RH  090%=      5-min Rain = 0
KFL1 130407Z 36006KT M03/M04 A3022 RMK A01 T10281041  RH  091%=      5-min Rain = 0
KFL1 130408Z 00006KT M03/M04 A3022 RMK A01 T10281038  RH  093%=      5-min Rain = 0
KFL1 130409Z 00006KT M02/M03 A3022 RMK A01 T10241033  RH  094%=      5-min Rain = 0
KFL1 130410Z 00005KT M02/M03 A3022 RMK A01 T10211029  RH  094%=      5-min Rain = 0
KFL1 130411Z 00006KT M02/M03 A3022 RMK A01 T10201029  RH  094%=      5-min Rain = 0
KFL1 130412Z 00006KT M02/M03 A3022 RMK A01 T10171029  RH  092%=      5-min Rain = 0
KFL1 130413Z 36006KT M02/M03 A3022 RMK A01 T10171029  RH  092%=      5-min Rain = 0
KFL1 130414Z 34006KT M02/M03 A3022 RMK A01 T10181031  RH  091%=      5-min Rain = 0
KFL1 130415Z 34005KT M02/M03 A3022 RMK A01 T10181033  RH  089%=      5-min Rain = 0
KFL1 130416Z 34005KT M02/M04 A3022 RMK A01 T10211038  RH  088%=      5-min Rain = 0
KFL1 130417Z 35005KT M02/M03 A3022 RMK A01 T10211034  RH  091%=      5-min Rain = 0
KFL1 130418Z 35005KT M02/M03 A3022 RMK A01 T10201032  RH  092%=      5-min Rain = 0
KFL1 130419Z 35005KT M02/M03 A3022 RMK A01 T10201032  RH  091%=      5-min Rain = 0
KFL1 130420Z 36004KT M02/M03 A3022 RMK A01 T10191032  RH  091%=      5-min Rain = 0
KFL1 130421Z 36003KT M02/M03 A3022 RMK A01 T10191033  RH  090%=      5-min Rain = 0
KFL1 130422Z 03002KT M02/M03 A3022 RMK A01 T10191031  RH  091%=      5-min Rain = 0
KFL1 130423Z 06002KT M02/M03 A3022 RMK A01 T10191030  RH  092%=      5-min Rain = 0
KFL1 130424Z 08002KT M02/M03 A3022 RMK A01 T10171029  RH  092%=      5-min Rain = 0
KFL1 130425Z 07003KT M02/M03 A3022 RMK A01 T10171029  RH  092%=      5-min Rain = 0
KFL1 130426Z 06004KT M02/M03 A3023 RMK A01 T10151028  RH  091%=      5-min Rain = 0
KFL1 130427Z 06006KT M02/M03 A3023 RMK A01 T10171031  RH  090%=      5-min Rain = 0
KFL1 130428Z 06005KT M02/M03 A3023 RMK A01 T10181033  RH  090%=      5-min Rain = 0
KFL1 130429Z 06005KT M02/M03 A3023 RMK A01 T10171031  RH  090%=      5-min Rain = 0
KFL1 130430Z 05005KT M02/M03 A3023 RMK A01 T10191033  RH  090%=      5-min Rain = 0
KFL1 130431Z 05005KT M02/M03 A3023 RMK A01 T10171032  RH  090%=      5-min Rain = 0
KFL1 130432Z 06004KT M02/M03 A3023 RMK A01 T10171032  RH  089%=      5-min Rain = 0
KFL1 130433Z 05004KT M02/M03 A3023 RMK A01 T10151030  RH  090%=      5-min Rain = 0
KFL1 130434Z 05004KT M01/M03 A3023 RMK A01 T10131028  RH  089%=      5-min Rain = 0
KFL1 130435Z 05005KT M01/M03 A3023 RMK A01 T10131029  RH  089%=      5-min Rain = 0
KFL1 130436Z 05005KT M01/M03 A3023 RMK A01 T10101028  RH  088%=      5-min Rain = 0
KFL1 130437Z 06006KT M01/M03 A3023 RMK A01 T10091028  RH  087%=      5-min Rain = 0
KFL1 130438Z 07006KT M01/M03 A3023 RMK A01 T10091029  RH  086%=      5-min Rain = 0
KFL1 130439Z 06005KT M01/M03 A3023 RMK A01 T10121032  RH  086%=      5-min Rain = 0
KFL1 130440Z 06006KT M01/M03 A3023 RMK A01 T10121031  RH  087%=      5-min Rain = 0
KFL1 130441Z 06005KT M01/M03 A3023 RMK A01 T10131032  RH  087%=      5-min Rain = 0
KFL1 130442Z 05004KT M01/M03 A3023 RMK A01 T10141033  RH  087%=      5-min Rain = 0
KFL1 130443Z 04001KT M01/M03 A3023 RMK A01 T10121031  RH  087%=      5-min Rain = 0
KFL1 130444Z 07003KT M01/M03 A3023 RMK A01 T10101029  RH  087%=      5-min Rain = 0
KFL1 130445Z 06006KT M01/M03 A3023 RMK A01 T10091029  RH  087%=      5-min Rain = 0
KFL1 130446Z 07004KT M01/M03 A3023 RMK A01 T10081026  RH  087%=      5-min Rain = 0
KFL1 130447Z 08003KT M01/M02 A3023 RMK A01 T10061024  RH  087%=      5-min Rain = 0
KFL1 130448Z 08003KT M00/M02 A3023 RMK A01 T10041023  RH  087%=      5-min Rain = 0
KFL1 130449Z 08003KT M00/M02 A3023 RMK A01 T10021021  RH  087%=      5-min Rain = 0
KFL1 130450Z 08003KT 00/02 A3023 RMK A01 T00-00-19  RH  087%=      5-min Rain = 0
KFL1 130451Z 08003KT 00/M02 A3023 RMK A01 T00021018  RH  086%=      5-min Rain = 0
KFL1 130452Z 08003KT 00/M02 A3023 RMK A01 T00021019  RH  086%=      5-min Rain = 0
KFL1 130453Z 07003KT 00/M02 A3023 RMK A01 T00021020  RH  085%=      5-min Rain = 0
KFL1 130454Z 08003KT 00/M02 A3023 RMK A01 T00031021  RH  084%=      5-min Rain = 0
KFL1 130455Z 08003KT 00/M02 A3023 RMK A01 T00031020  RH  084%=      5-min Rain = 0
KFL1 130456Z 07003KT 01/M02 A3023 RMK A01 T00051019  RH  084%=      5-min Rain = 0
KFL1 130457Z 07003KT 01/M02 A3023 RMK A01 T00051019  RH  084%=      5-min Rain = 0
KFL1 130458Z 06003KT 01/M02 A3023 RMK A01 T00061018  RH  084%=      5-min Rain = 0
KFL1 130459Z 06004KT 01/M02 A3023 RMK A01 T00071021  RH  082%=      5-min Rain = 0

Page generated in 0.1474 seconds.